Observation data for Dell City 1N on 12/13/2019      Previous  Date       Current Mesonet Observations  Soil Data  Daily Summary Page  Observations in Plain Language
KDC1 130600Z 34003KT 04/03 A3018 RMK A01 T00420029  RH  091%=      5-min Rain = 0
KDC1 130601Z 35003KT 04/03 A3018 RMK A01 T00440030  RH  091%=      5-min Rain = 0
KDC1 130602Z 35003KT 05/03 A3018 RMK A01 T00460031  RH  090%=      5-min Rain = 0
KDC1 130603Z 33004KT 05/03 A3018 RMK A01 T00470031  RH  089%=      5-min Rain = 0
KDC1 130604Z 30004KT 05/03 A3018 RMK A01 T00480030  RH  088%=      5-min Rain = 0
KDC1 130605Z 31004KT 05/03 A3018 RMK A01 T00460027  RH  087%=      5-min Rain = 0
KDC1 130606Z 32004KT 05/03 A3018 RMK A01 T00450027  RH  088%=      5-min Rain = 0
KDC1 130607Z 33004KT 04/03 A3018 RMK A01 T00440027  RH  088%=      5-min Rain = 0
KDC1 130608Z 35004KT 04/03 A3018 RMK A01 T00430026  RH  089%=      5-min Rain = 0
KDC1 130609Z 35004KT 04/03 A3018 RMK A01 T00420026  RH  089%=      5-min Rain = 0
KDC1 130610Z 34003KT 04/03 A3018 RMK A01 T00420026  RH  089%=      5-min Rain = 0
KDC1 130611Z 33003KT 04/03 A3018 RMK A01 T00420027  RH  090%=      5-min Rain = 0
KDC1 130612Z 32003KT 04/03 A3018 RMK A01 T00440028  RH  090%=      5-min Rain = 0
KDC1 130613Z 31003KT 05/03 A3018 RMK A01 T00450028  RH  089%=      5-min Rain = 0
KDC1 130614Z 30002KT 04/03 A3018 RMK A01 T00440026  RH  088%=      5-min Rain = 0
KDC1 130615Z 29001KT 04/03 A3018 RMK A01 T00440026  RH  088%=      5-min Rain = 0
KDC1 130616Z 30001KT 04/03 A3018 RMK A01 T00430027  RH  089%=      5-min Rain = 0
KDC1 130617Z 28001KT 04/03 A3018 RMK A01 T00440027  RH  089%=      5-min Rain = 0
KDC1 130618Z 27002KT 04/03 A3018 RMK A01 T00430026  RH  089%=      5-min Rain = 0
KDC1 130619Z 29002KT 04/03 A3018 RMK A01 T00430026  RH  089%=      5-min Rain = 0
KDC1 130620Z 27001KT 04/03 A3018 RMK A01 T00420027  RH  089%=      5-min Rain = 0
KDC1 130621Z 24000KT 04/03 A3018 RMK A01 T00420026  RH  089%=      5-min Rain = 0
KDC1 130622Z 00000KT 04/03 A3018 RMK A01 T00410025  RH  089%=      5-min Rain = 0
KDC1 130623Z 07001KT 04/03 A3018 RMK A01 T00400025  RH  089%=      5-min Rain = 0
KDC1 130624Z 06002KT 04/03 A3018 RMK A01 T00400025  RH  090%=      5-min Rain = 0
KDC1 130625Z 08002KT 04/02 A3018 RMK A01 T00380023  RH  090%=      5-min Rain = 0
KDC1 130626Z 10001KT 04/02 A3018 RMK A01 T00370023  RH  090%=      5-min Rain = 0
KDC1 130627Z 14000KT 04/02 A3018 RMK A01 T00370023  RH  091%=      5-min Rain = 0
KDC1 130628Z 14000KT 04/02 A3018 RMK A01 T00370024  RH  092%=      5-min Rain = 0
KDC1 130629Z 00000KT 04/02 A3018 RMK A01 T00360024  RH  092%=      5-min Rain = 0
KDC1 130630Z 00000KT 04/02 A3018 RMK A01 T00360024  RH  092%=      5-min Rain = 0
KDC1 130631Z 20000KT 04/02 A3018 RMK A01 T00350024  RH  092%=      5-min Rain = 0
KDC1 130632Z 20002KT 03/02 A3018 RMK A01 T00340023  RH  092%=      5-min Rain = 0
KDC1 130633Z 20001KT 03/02 A3017 RMK A01 T00340022  RH  092%=      5-min Rain = 0
KDC1 130634Z 26001KT 03/02 A3017 RMK A01 T00340023  RH  093%=      5-min Rain = 0
KDC1 130635Z 24002KT 03/02 A3017 RMK A01 T00340024  RH  093%=      5-min Rain = 0
KDC1 130636Z 21003KT 03/02 A3017 RMK A01 T00340023  RH  093%=      5-min Rain = 0
KDC1 130637Z 21003KT 04/03 A3017 RMK A01 T00350025  RH  093%=      5-min Rain = 0
KDC1 130638Z 20003KT 04/03 A3017 RMK A01 T00370027  RH  093%=      5-min Rain = 0
KDC1 130639Z 19003KT 04/03 A3017 RMK A01 T00380028  RH  093%=      5-min Rain = 0
KDC1 130640Z 19002KT 04/03 A3017 RMK A01 T00390029  RH  093%=      5-min Rain = 0
KDC1 130641Z 23003KT 04/03 A3017 RMK A01 T00400029  RH  093%=      5-min Rain = 0
KDC1 130642Z 22003KT 04/03 A3017 RMK A01 T00400028  RH  092%=      5-min Rain = 0
KDC1 130643Z 21002KT 04/03 A3017 RMK A01 T00390027  RH  091%=      5-min Rain = 0
KDC1 130644Z 21001KT 04/03 A3017 RMK A01 T00390026  RH  091%=      5-min Rain = 0
KDC1 130645Z 22002KT 04/03 A3017 RMK A01 T00390027  RH  092%=      5-min Rain = 0
KDC1 130646Z 22003KT 04/03 A3016 RMK A01 T00390026  RH  092%=      5-min Rain = 0
KDC1 130647Z 22003KT 04/03 A3016 RMK A01 T00390027  RH  092%=      5-min Rain = 0
KDC1 130648Z 22002KT 04/03 A3016 RMK A01 T00390027  RH  092%=      5-min Rain = 0
KDC1 130649Z 22002KT 04/03 A3016 RMK A01 T00400028  RH  092%=      5-min Rain = 0
KDC1 130650Z 25002KT 04/03 A3016 RMK A01 T00400027  RH  091%=      5-min Rain = 0
KDC1 130651Z 25003KT 04/03 A3017 RMK A01 T00390026  RH  091%=      5-min Rain = 0
KDC1 130652Z 26003KT 04/03 A3017 RMK A01 T00380025  RH  091%=      5-min Rain = 0
KDC1 130653Z 26002KT 04/02 A3017 RMK A01 T00370023  RH  091%=      5-min Rain = 0
KDC1 130654Z 26003KT 04/02 A3017 RMK A01 T00350022  RH  091%=      5-min Rain = 0
KDC1 130655Z 25003KT 04/02 A3017 RMK A01 T00350023  RH  092%=      5-min Rain = 0
KDC1 130656Z 24003KT 03/02 A3017 RMK A01 T00340022  RH  092%=      5-min Rain = 0
KDC1 130657Z 24003KT 04/02 A3017 RMK A01 T00350023  RH  092%=      5-min Rain = 0
KDC1 130658Z 25003KT 04/02 A3017 RMK A01 T00350024  RH  093%=      5-min Rain = 0
KDC1 130659Z 26004KT 04/03 A3016 RMK A01 T00360026  RH  093%=      5-min Rain = 0
KDC1 130700Z 26003KT 04/03 A3016 RMK A01 T00360025  RH  092%=      5-min Rain = 0
KDC1 130701Z 26003KT 04/02 A3016 RMK A01 T00350023  RH  092%=      5-min Rain = 0
KDC1 130702Z 26003KT 03/02 A3016 RMK A01 T00340022  RH  092%=      5-min Rain = 0
KDC1 130703Z 26004KT 03/02 A3016 RMK A01 T00330022  RH  092%=      5-min Rain = 0
KDC1 130704Z 26004KT 03/02 A3016 RMK A01 T00320020  RH  092%=      5-min Rain = 0
KDC1 130705Z 26003KT 03/02 A3016 RMK A01 T00310018  RH  092%=      5-min Rain = 0
KDC1 130706Z 26003KT 03/02 A3016 RMK A01 T00290017  RH  092%=      5-min Rain = 0
KDC1 130707Z 27003KT 03/02 A3016 RMK A01 T00290018  RH  092%=      5-min Rain = 0
KDC1 130708Z 27002KT 03/02 A3016 RMK A01 T00280017  RH  092%=      5-min Rain = 0
KDC1 130709Z 28002KT 03/02 A3016 RMK A01 T00270016  RH  092%=      5-min Rain = 0
KDC1 130710Z 28002KT 03/01 A3016 RMK A01 T00250014  RH  092%=      5-min Rain = 0
KDC1 130711Z 29003KT 02/01 A3016 RMK A01 T00240013  RH  092%=      5-min Rain = 0
KDC1 130712Z 30003KT 02/01 A3016 RMK A01 T00230012  RH  093%=      5-min Rain = 0
KDC1 130713Z 29003KT 02/01 A3016 RMK A01 T00220013  RH  093%=      5-min Rain = 0
KDC1 130714Z 30002KT 02/01 A3016 RMK A01 T00230014  RH  094%=      5-min Rain = 0
KDC1 130715Z 29003KT 02/01 A3016 RMK A01 T00230014  RH  094%=      5-min Rain = 0
KDC1 130716Z 30002KT 02/01 A3016 RMK A01 T00220014  RH  094%=      5-min Rain = 0
KDC1 130717Z 30003KT 02/01 A3016 RMK A01 T00220014  RH  094%=      5-min Rain = 0
KDC1 130718Z 30003KT 02/01 A3017 RMK A01 T00230014  RH  094%=      5-min Rain = 0
KDC1 130719Z 30003KT 02/01 A3017 RMK A01 T00220014  RH  095%=      5-min Rain = 0
KDC1 130720Z 31004KT 02/02 A3017 RMK A01 T00220015  RH  095%=      5-min Rain = 0
KDC1 130721Z 30003KT 02/02 A3017 RMK A01 T00230016  RH  095%=      5-min Rain = 0
KDC1 130722Z 29004KT 02/02 A3017 RMK A01 T00240018  RH  096%=      5-min Rain = 0
KDC1 130723Z 29003KT 03/02 A3016 RMK A01 T00250018  RH  096%=      5-min Rain = 0
KDC1 130724Z 29004KT 03/02 A3016 RMK A01 T00250018  RH  095%=      5-min Rain = 0
KDC1 130725Z 29004KT 02/02 A3016 RMK A01 T00240017  RH  095%=      5-min Rain = 0
KDC1 130726Z 29003KT 02/02 A3016 RMK A01 T00240017  RH  095%=      5-min Rain = 0
KDC1 130727Z 29003KT 02/02 A3016 RMK A01 T00240017  RH  095%=      5-min Rain = 0
KDC1 130728Z 28004KT 02/02 A3016 RMK A01 T00240017  RH  095%=      5-min Rain = 0
KDC1 130729Z 28004KT 02/02 A3016 RMK A01 T00240017  RH  095%=      5-min Rain = 0
KDC1 130730Z 28004KT 02/02 A3016 RMK A01 T00240017  RH  095%=      5-min Rain = 0
KDC1 130731Z 28004KT 02/02 A3016 RMK A01 T00240016  RH  095%=      5-min Rain = 0
KDC1 130732Z 28004KT 02/02 A3016 RMK A01 T00230015  RH  095%=      5-min Rain = 0
KDC1 130733Z 28004KT 02/01 A3016 RMK A01 T00220014  RH  095%=      5-min Rain = 0
KDC1 130734Z 28003KT 02/02 A3016 RMK A01 T00220015  RH  095%=      5-min Rain = 0
KDC1 130735Z 28003KT 02/02 A3016 RMK A01 T00220016  RH  095%=      5-min Rain = 0
KDC1 130736Z 29003KT 02/02 A3016 RMK A01 T00220015  RH  096%=      5-min Rain = 0
KDC1 130737Z 30002KT 02/02 A3016 RMK A01 T00220015  RH  095%=      5-min Rain = 0
KDC1 130738Z 32002KT 02/02 A3016 RMK A01 T00220016  RH  095%=      5-min Rain = 0
KDC1 130739Z 32003KT 02/02 A3016 RMK A01 T00220015  RH  095%=      5-min Rain = 0
KDC1 130740Z 32003KT 02/02 A3016 RMK A01 T00220015  RH  095%=      5-min Rain = 0
KDC1 130741Z 33003KT 02/02 A3016 RMK A01 T00220015  RH  095%=      5-min Rain = 0
KDC1 130742Z 32003KT 02/02 A3016 RMK A01 T00220015  RH  095%=      5-min Rain = 0
KDC1 130743Z 32003KT 02/02 A3016 RMK A01 T00220015  RH  095%=      5-min Rain = 0
KDC1 130744Z 32003KT 02/01 A3016 RMK A01 T00210014  RH  095%=      5-min Rain = 0
KDC1 130745Z 33002KT 02/01 A3016 RMK A01 T00200013  RH  095%=      5-min Rain = 0
KDC1 130746Z 33002KT 02/01 A3016 RMK A01 T00200012  RH  095%=      5-min Rain = 0
KDC1 130747Z 32003KT 02/01 A3016 RMK A01 T00200013  RH  095%=      5-min Rain = 0
KDC1 130748Z 32003KT 02/01 A3016 RMK A01 T00190012  RH  095%=      5-min Rain = 0
KDC1 130749Z 32003KT 02/01 A3016 RMK A01 T00190012  RH  095%=      5-min Rain = 0
KDC1 130750Z 32003KT 02/01 A3016 RMK A01 T00190011  RH  095%=      5-min Rain = 0
KDC1 130751Z 32003KT 02/01 A3016 RMK A01 T00180011  RH  095%=      5-min Rain = 0
KDC1 130752Z 33004KT 02/01 A3016 RMK A01 T00180010  RH  095%=      5-min Rain = 0
KDC1 130753Z 34004KT 02/01 A3016 RMK A01 T00170010  RH  095%=      5-min Rain = 0
KDC1 130754Z 35004KT 02/01 A3016 RMK A01 T00170010  RH  095%=      5-min Rain = 0
KDC1 130755Z 34004KT 02/01 A3016 RMK A01 T00170011  RH  096%=      5-min Rain = 0
KDC1 130756Z 34004KT 02/01 A3016 RMK A01 T00170011  RH  096%=      5-min Rain = 0
KDC1 130757Z 34003KT 02/01 A3016 RMK A01 T00170011  RH  096%=      5-min Rain = 0
KDC1 130758Z 34004KT 02/01 A3016 RMK A01 T00170011  RH  096%=      5-min Rain = 0
KDC1 130759Z 34004KT 02/01 A3016 RMK A01 T00170011  RH  096%=      5-min Rain = 0
KDC1 130800Z 34004KT 02/01 A3016 RMK A01 T00160009  RH  096%=      5-min Rain = 0
KDC1 130801Z 34004KT 02/01 A3016 RMK A01 T00150008  RH  095%=      5-min Rain = 0
KDC1 130802Z 34004KT 02/01 A3016 RMK A01 T00150008  RH  096%=      5-min Rain = 0
KDC1 130803Z 35005KT 01/01 A3016 RMK A01 T00140008  RH  096%=      5-min Rain = 0
KDC1 130804Z 34005KT 02/01 A3017 RMK A01 T00150009  RH  096%=      5-min Rain = 0
KDC1 130805Z 35005KT 02/01 A3017 RMK A01 T00160011  RH  096%=      5-min Rain = 0
KDC1 130806Z 35005KT 02/01 A3017 RMK A01 T00170012  RH  097%=      5-min Rain = 0
KDC1 130807Z 35005KT 02/01 A3017 RMK A01 T00170012  RH  097%=      5-min Rain = 0
KDC1 130808Z 36006KT 02/01 A3017 RMK A01 T00170012  RH  097%=      5-min Rain = 0
KDC1 130809Z 36005KT 02/01 A3016 RMK A01 T00180013  RH  097%=      5-min Rain = 0
KDC1 130810Z 36005KT 02/01 A3016 RMK A01 T00180013  RH  096%=      5-min Rain = 0
KDC1 130811Z 35005KT 02/01 A3016 RMK A01 T00180013  RH  096%=      5-min Rain = 0
KDC1 130812Z 36005KT 02/01 A3016 RMK A01 T00190014  RH  096%=      5-min Rain = 0
KDC1 130813Z 36005KT 02/01 A3016 RMK A01 T00190014  RH  096%=      5-min Rain = 0
KDC1 130814Z 36006KT 02/01 A3016 RMK A01 T00190014  RH  096%=      5-min Rain = 0
KDC1 130815Z 35006KT 02/01 A3016 RMK A01 T00200014  RH  096%=      5-min Rain = 0
KDC1 130816Z 35006KT 02/01 A3016 RMK A01 T00200014  RH  096%=      5-min Rain = 0
KDC1 130817Z 36006KT 02/02 A3016 RMK A01 T00210015  RH  096%=      5-min Rain = 0
KDC1 130818Z 00006KT 02/02 A3016 RMK A01 T00210015  RH  096%=      5-min Rain = 0
KDC1 130819Z 00006KT 02/02 A3016 RMK A01 T00220016  RH  096%=      5-min Rain = 0
KDC1 130820Z 00006KT 02/02 A3016 RMK A01 T00230017  RH  096%=      5-min Rain = 0
KDC1 130821Z 00006KT 02/02 A3016 RMK A01 T00240018  RH  096%=      5-min Rain = 0
KDC1 130822Z 00005KT 03/02 A3016 RMK A01 T00260020  RH  096%=      5-min Rain = 0
KDC1 130823Z 00004KT 03/02 A3016 RMK A01 T00260020  RH  095%=      5-min Rain = 0
KDC1 130824Z 35004KT 03/02 A3016 RMK A01 T00270020  RH  095%=      5-min Rain = 0
KDC1 130825Z 00004KT 03/02 A3016 RMK A01 T00270019  RH  095%=      5-min Rain = 0
KDC1 130826Z 00005KT 03/02 A3016 RMK A01 T00270019  RH  095%=      5-min Rain = 0
KDC1 130827Z 00006KT 03/02 A3016 RMK A01 T00270019  RH  094%=      5-min Rain = 0
KDC1 130828Z 01006KT 03/02 A3016 RMK A01 T00270019  RH  094%=      5-min Rain = 0
KDC1 130829Z 02005KT 03/02 A3016 RMK A01 T00280020  RH  095%=      5-min Rain = 0
KDC1 130830Z 36004KT 03/02 A3016 RMK A01 T00300022  RH  095%=      5-min Rain = 0
KDC1 130831Z 34005KT 03/02 A3016 RMK A01 T00300021  RH  094%=      5-min Rain = 0
KDC1 130832Z 36006KT 03/02 A3016 RMK A01 T00290020  RH  094%=      5-min Rain = 0
KDC1 130833Z 35005KT 03/02 A3016 RMK A01 T00280019  RH  093%=      5-min Rain = 0
KDC1 130834Z 35005KT 03/02 A3016 RMK A01 T00280018  RH  093%=      5-min Rain = 0
KDC1 130835Z 35005KT 03/02 A3016 RMK A01 T00280018  RH  094%=      5-min Rain = 0
KDC1 130836Z 00005KT 03/02 A3016 RMK A01 T00280019  RH  094%=      5-min Rain = 0
KDC1 130837Z 35005KT 03/02 A3016 RMK A01 T00280019  RH  094%=      5-min Rain = 0
KDC1 130838Z 36005KT 03/02 A3016 RMK A01 T00280019  RH  094%=      5-min Rain = 0
KDC1 130839Z 01005KT 03/02 A3016 RMK A01 T00280019  RH  094%=      5-min Rain = 0
KDC1 130840Z 01005KT 03/02 A3016 RMK A01 T00290020  RH  094%=      5-min Rain = 0
KDC1 130841Z 35005KT 03/02 A3016 RMK A01 T00290020  RH  094%=      5-min Rain = 0
KDC1 130842Z 36005KT 03/02 A3016 RMK A01 T00300020  RH  093%=      5-min Rain = 0
KDC1 130843Z 35004KT 03/02 A3016 RMK A01 T00290019  RH  093%=      5-min Rain = 0
KDC1 130844Z 34004KT 03/02 A3016 RMK A01 T00290018  RH  093%=      5-min Rain = 0
KDC1 130845Z 35005KT 03/02 A3016 RMK A01 T00280017  RH  093%=      5-min Rain = 0
KDC1 130846Z 35004KT 03/02 A3016 RMK A01 T00260015  RH  093%=      5-min Rain = 0
KDC1 130847Z 34003KT 03/02 A3016 RMK A01 T00260015  RH  093%=      5-min Rain = 0
KDC1 130848Z 33003KT 02/01 A3016 RMK A01 T00240014  RH  093%=      5-min Rain = 0
KDC1 130849Z 31003KT 02/01 A3016 RMK A01 T00230013  RH  093%=      5-min Rain = 0
KDC1 130850Z 33003KT 02/01 A3016 RMK A01 T00220012  RH  093%=      5-min Rain = 0
KDC1 130851Z 34003KT 02/01 A3016 RMK A01 T00220012  RH  093%=      5-min Rain = 0
KDC1 130852Z 33003KT 02/01 A3016 RMK A01 T00220014  RH  094%=      5-min Rain = 0
KDC1 130853Z 32003KT 02/02 A3016 RMK A01 T00230015  RH  094%=      5-min Rain = 0
KDC1 130854Z 29003KT 02/01 A3015 RMK A01 T00230014  RH  094%=      5-min Rain = 0
KDC1 130855Z 27003KT 02/01 A3015 RMK A01 T00220014  RH  094%=      5-min Rain = 0
KDC1 130856Z 29003KT 02/01 A3015 RMK A01 T00220014  RH  094%=      5-min Rain = 0
KDC1 130857Z 29002KT 02/01 A3015 RMK A01 T00220014  RH  094%=      5-min Rain = 0
KDC1 130858Z 31002KT 02/01 A3015 RMK A01 T00220014  RH  094%=      5-min Rain = 0
KDC1 130859Z 29003KT 02/01 A3015 RMK A01 T00230014  RH  094%=      5-min Rain = 0
KDC1 130900Z 27003KT 02/01 A3015 RMK A01 T00230014  RH  094%=      5-min Rain = 0
KDC1 130901Z 26004KT 02/01 A3015 RMK A01 T00230014  RH  094%=      5-min Rain = 0
KDC1 130902Z 25004KT 02/01 A3015 RMK A01 T00220014  RH  094%=      5-min Rain = 0
KDC1 130903Z 26004KT 02/01 A3016 RMK A01 T00220014  RH  094%=      5-min Rain = 0
KDC1 130904Z 25004KT 02/01 A3016 RMK A01 T00210012  RH  094%=      5-min Rain = 0
KDC1 130905Z 25003KT 02/01 A3015 RMK A01 T00210012  RH  094%=      5-min Rain = 0
KDC1 130906Z 25005KT 02/01 A3015 RMK A01 T00210013  RH  094%=      5-min Rain = 0
KDC1 130907Z 26005KT 02/01 A3015 RMK A01 T00210013  RH  095%=      5-min Rain = 0
KDC1 130908Z 26004KT 02/01 A3015 RMK A01 T00210013  RH  094%=      5-min Rain = 0
KDC1 130909Z 26004KT 02/01 A3015 RMK A01 T00210013  RH  094%=      5-min Rain = 0
KDC1 130910Z 27005KT 02/01 A3015 RMK A01 T00220014  RH  095%=      5-min Rain = 0
KDC1 130911Z 27004KT 02/01 A3015 RMK A01 T00220014  RH  095%=      5-min Rain = 0
KDC1 130912Z 27003KT 02/01 A3015 RMK A01 T00220014  RH  094%=      5-min Rain = 0
KDC1 130913Z 29004KT 02/02 A3015 RMK A01 T00230015  RH  095%=      5-min Rain = 0
KDC1 130914Z 30005KT 02/02 A3015 RMK A01 T00240016  RH  094%=      5-min Rain = 0
KDC1 130915Z 30004KT 02/01 A3015 RMK A01 T00230014  RH  094%=      5-min Rain = 0
KDC1 130916Z 31003KT 02/01 A3015 RMK A01 T00210012  RH  093%=      5-min Rain = 0
KDC1 130917Z 31005KT 02/01 A3015 RMK A01 T00210012  RH  094%=      5-min Rain = 0
KDC1 130918Z 31006KT 02/01 A3015 RMK A01 T00210013  RH  094%=      5-min Rain = 0
KDC1 130919Z 30004KT 02/01 A3015 RMK A01 T00220014  RH  094%=      5-min Rain = 0
KDC1 130920Z 29004KT 02/01 A3015 RMK A01 T00230014  RH  094%=      5-min Rain = 0
KDC1 130921Z 30006KT 02/01 A3016 RMK A01 T00220013  RH  094%=      5-min Rain = 0
KDC1 130922Z 29006KT 02/01 A3015 RMK A01 T00210012  RH  094%=      5-min Rain = 0
KDC1 130923Z 29004KT 02/01 A3015 RMK A01 T00200011  RH  094%=      5-min Rain = 0
KDC1 130924Z 29004KT 02/01 A3015 RMK A01 T00200012  RH  094%=      5-min Rain = 0
KDC1 130925Z 30005KT 02/01 A3016 RMK A01 T00210013  RH  094%=      5-min Rain = 0
KDC1 130926Z 30005KT 02/01 A3016 RMK A01 T00210012  RH  094%=      5-min Rain = 0
KDC1 130927Z 29005KT 02/01 A3016 RMK A01 T00200011  RH  094%=      5-min Rain = 0
KDC1 130928Z 29006KT 02/01 A3016 RMK A01 T00190010  RH  094%=      5-min Rain = 0
KDC1 130929Z 29006KT 02/01 A3016 RMK A01 T00180008  RH  093%=      5-min Rain = 0
KDC1 130930Z 29006KT 02/01 A3016 RMK A01 T00170007  RH  094%=      5-min Rain = 0
KDC1 130931Z 29006KT 02/01 A3016 RMK A01 T00160007  RH  094%=      5-min Rain = 0
KDC1 130932Z 29006KT 02/01 A3015 RMK A01 T00160008  RH  094%=      5-min Rain = 0
KDC1 130933Z 29006KT 02/01 A3015 RMK A01 T00160008  RH  094%=      5-min Rain = 0
KDC1 130934Z 30006KT 02/01 A3015 RMK A01 T00150007  RH  095%=      5-min Rain = 0
KDC1 130935Z 30006KT 01/01 A3015 RMK A01 T00140007  RH  095%=      5-min Rain = 0
KDC1 130936Z 30006KT 01/01 A3015 RMK A01 T00140007  RH  095%=      5-min Rain = 0
KDC1 130937Z 30006KT 01/01 A3015 RMK A01 T00140007  RH  095%=      5-min Rain = 0
KDC1 130938Z 30006KT 01/01 A3015 RMK A01 T00140007  RH  095%=      5-min Rain = 0
KDC1 130939Z 30006KT 01/01 A3015 RMK A01 T00140008  RH  096%=      5-min Rain = 0
KDC1 130940Z 30006KT 02/01 A3015 RMK A01 T00150009  RH  096%=      5-min Rain = 0
KDC1 130941Z 30005KT 02/01 A3015 RMK A01 T00160010  RH  096%=      5-min Rain = 0
KDC1 130942Z 29005KT 02/01 A3014 RMK A01 T00170011  RH  096%=      5-min Rain = 0
KDC1 130943Z 29006KT 02/01 A3014 RMK A01 T00180012  RH  096%=      5-min Rain = 0
KDC1 130944Z 29006KT 02/01 A3014 RMK A01 T00180012  RH  096%=      5-min Rain = 0
KDC1 130945Z 28005KT 02/01 A3014 RMK A01 T00180012  RH  095%=      5-min Rain = 0
KDC1 130946Z 28005KT 02/01 A3014 RMK A01 T00190012  RH  095%=      5-min Rain = 0
KDC1 130947Z 27005KT 02/01 A3014 RMK A01 T00210014  RH  096%=      5-min Rain = 0
KDC1 130948Z 28005KT 02/02 A3014 RMK A01 T00240018  RH  096%=      5-min Rain = 0
KDC1 130949Z 28005KT 03/02 A3014 RMK A01 T00270021  RH  096%=      5-min Rain = 0
KDC1 130950Z 28005KT 03/02 A3014 RMK A01 T00290022  RH  095%=      5-min Rain = 0
KDC1 130951Z 28005KT 03/02 A3014 RMK A01 T00300021  RH  094%=      5-min Rain = 0
KDC1 130952Z 28005KT 03/02 A3014 RMK A01 T00300020  RH  093%=      5-min Rain = 0
KDC1 130953Z 28004KT 03/02 A3014 RMK A01 T00300019  RH  092%=      5-min Rain = 0
KDC1 130954Z 28005KT 03/02 A3014 RMK A01 T00300018  RH  092%=      5-min Rain = 0
KDC1 130955Z 28005KT 03/02 A3014 RMK A01 T00300018  RH  092%=      5-min Rain = 0
KDC1 130956Z 28004KT 03/02 A3014 RMK A01 T00300018  RH  092%=      5-min Rain = 0
KDC1 130957Z 28004KT 03/02 A3014 RMK A01 T00300018  RH  092%=      5-min Rain = 0
KDC1 130958Z 28005KT 03/02 A3014 RMK A01 T00300017  RH  091%=      5-min Rain = 0
KDC1 130959Z 29006KT 03/02 A3014 RMK A01 T00290015  RH  091%=      5-min Rain = 0
KDC1 131000Z 29006KT 03/01 A3015 RMK A01 T00270014  RH  091%=      5-min Rain = 0
KDC1 131001Z 28006KT 03/01 A3015 RMK A01 T00260013  RH  091%=      5-min Rain = 0
KDC1 131002Z 28005KT 02/01 A3015 RMK A01 T00240011  RH  091%=      5-min Rain = 0
KDC1 131003Z 28005KT 02/01 A3015 RMK A01 T00220010  RH  092%=      5-min Rain = 0
KDC1 131004Z 28005KT 02/01 A3015 RMK A01 T00190007  RH  092%=      5-min Rain = 0
KDC1 131005Z 27006KT 02/01 A3015 RMK A01 T00170006  RH  092%=      5-min Rain = 0
KDC1 131006Z 28006KT 02/01 A3015 RMK A01 T00160005  RH  093%=      5-min Rain = 0
KDC1 131007Z 29005KT 01/01 A3015 RMK A01 T00140005  RH  093%=      5-min Rain = 0
KDC1 131008Z 29006KT 01/00 A3015 RMK A01 T00130004  RH  094%=      5-min Rain = 0
KDC1 131009Z 29007KT 01/00 A3016 RMK A01 T00120004  RH  094%=      5-min Rain = 0
KDC1 131010Z 30007KT 01/00 A3016 RMK A01 T00120004  RH  094%=      5-min Rain = 0
KDC1 131011Z 30007KT 01/01 A3015 RMK A01 T00120005  RH  095%=      5-min Rain = 0
KDC1 131012Z 30007KT 01/01 A3015 RMK A01 T00120005  RH  095%=      5-min Rain = 0
KDC1 131013Z 30006KT 01/01 A3015 RMK A01 T00120006  RH  095%=      5-min Rain = 0
KDC1 131014Z 30006KT 01/01 A3015 RMK A01 T00120006  RH  095%=      5-min Rain = 0
KDC1 131015Z 29005KT 01/01 A3015 RMK A01 T00120006  RH  095%=      5-min Rain = 0
KDC1 131016Z 29005KT 01/01 A3015 RMK A01 T00120006  RH  096%=      5-min Rain = 0
KDC1 131017Z 30005KT 01/01 A3015 RMK A01 T00120006  RH  096%=      5-min Rain = 0
KDC1 131018Z 30006KT 01/01 A3014 RMK A01 T00120006  RH  096%=      5-min Rain = 0
KDC1 131019Z 31006KT 01/01 A3014 RMK A01 T00120006  RH  096%=      5-min Rain = 0
KDC1 131020Z 31007KT 01/01 A3014 RMK A01 T00130007  RH  096%=      5-min Rain = 0
KDC1 131021Z 31007KT 02/01 A3014 RMK A01 T00150010  RH  097%=      5-min Rain = 0
KDC1 131022Z 32008KT 02/01 A3014 RMK A01 T00160011  RH  097%=      5-min Rain = 0
KDC1 131023Z 33007KT 02/01 A3015 RMK A01 T00170012  RH  097%=      5-min Rain = 0
KDC1 131024Z 33009KT 02/01 A3015 RMK A01 T00170013  RH  097%=      5-min Rain = 0
KDC1 131025Z 33009KT 02/01 A3015 RMK A01 T00180013  RH  097%=      5-min Rain = 0
KDC1 131026Z 34010KT 02/01 A3015 RMK A01 T00180013  RH  096%=      5-min Rain = 0
KDC1 131027Z 34009KT 02/01 A3015 RMK A01 T00190014  RH  096%=      5-min Rain = 0
KDC1 131028Z 34009KT 02/01 A3015 RMK A01 T00200014  RH  096%=      5-min Rain = 0
KDC1 131029Z 35009KT 02/02 A3015 RMK A01 T00210015  RH  096%=      5-min Rain = 0
KDC1 131030Z 35009KT 02/02 A3015 RMK A01 T00220016  RH  096%=      5-min Rain = 0
KDC1 131031Z 35008KT 02/02 A3015 RMK A01 T00230016  RH  096%=      5-min Rain = 0
KDC1 131032Z 35008KT 02/02 A3015 RMK A01 T00240018  RH  096%=      5-min Rain = 0
KDC1 131033Z 35008KT 03/02 A3016 RMK A01 T00250018  RH  095%=      5-min Rain = 0
KDC1 131034Z 35007KT 03/02 A3016 RMK A01 T00260019  RH  095%=      5-min Rain = 0
KDC1 131035Z 35007KT 03/02 A3016 RMK A01 T00260018  RH  095%=      5-min Rain = 0
KDC1 131036Z 34006KT 03/02 A3016 RMK A01 T00260018  RH  094%=      5-min Rain = 0
KDC1 131037Z 34006KT 03/02 A3016 RMK A01 T00260018  RH  094%=      5-min Rain = 0
KDC1 131038Z 34007KT 03/02 A3016 RMK A01 T00260017  RH  094%=      5-min Rain = 0
KDC1 131039Z 34007KT 03/02 A3016 RMK A01 T00250016  RH  094%=      5-min Rain = 0
KDC1 131040Z 34007KT 03/02 A3016 RMK A01 T00250015  RH  094%=      5-min Rain = 0
KDC1 131041Z 33006KT 02/02 A3016 RMK A01 T00240015  RH  094%=      5-min Rain = 0
KDC1 131042Z 33006KT 02/01 A3016 RMK A01 T00230014  RH  094%=      5-min Rain = 0
KDC1 131043Z 33006KT 02/01 A3016 RMK A01 T00230014  RH  094%=      5-min Rain = 0
KDC1 131044Z 33005KT 02/01 A3016 RMK A01 T00220013  RH  094%=      5-min Rain = 0
KDC1 131045Z 31005KT 02/01 A3015 RMK A01 T00210012  RH  094%=      5-min Rain = 0
KDC1 131046Z 30005KT 02/01 A3015 RMK A01 T00200012  RH  094%=      5-min Rain = 0
KDC1 131047Z 28004KT 02/01 A3015 RMK A01 T00190011  RH  094%=      5-min Rain = 0
KDC1 131048Z 29005KT 02/01 A3015 RMK A01 T00190011  RH  094%=      5-min Rain = 0
KDC1 131049Z 28004KT 02/01 A3015 RMK A01 T00180011  RH  095%=      5-min Rain = 0
KDC1 131050Z 27005KT 02/01 A3015 RMK A01 T00190012  RH  095%=      5-min Rain = 0
KDC1 131051Z 30005KT 02/01 A3015 RMK A01 T00190013  RH  095%=      5-min Rain = 0
KDC1 131052Z 31005KT 02/01 A3015 RMK A01 T00200013  RH  096%=      5-min Rain = 0
KDC1 131053Z 30005KT 02/01 A3015 RMK A01 T00200014  RH  096%=      5-min Rain = 0
KDC1 131054Z 29005KT 02/01 A3015 RMK A01 T00210014  RH  096%=      5-min Rain = 0
KDC1 131055Z 29005KT 02/01 A3015 RMK A01 T00210014  RH  095%=      5-min Rain = 0
KDC1 131056Z 30005KT 02/01 A3015 RMK A01 T00210014  RH  095%=      5-min Rain = 0
KDC1 131057Z 29005KT 02/01 A3015 RMK A01 T00210014  RH  095%=      5-min Rain = 0
KDC1 131058Z 26005KT 02/01 A3015 RMK A01 T00210014  RH  095%=      5-min Rain = 0
KDC1 131059Z 28004KT 02/01 A3015 RMK A01 T00220014  RH  095%=      5-min Rain = 0
KDC1 131100Z 28004KT 02/01 A3015 RMK A01 T00210014  RH  095%=      5-min Rain = 0
KDC1 131101Z 27005KT 02/01 A3015 RMK A01 T00210014  RH  095%=      5-min Rain = 0
KDC1 131102Z 28005KT 02/01 A3015 RMK A01 T00210012  RH  094%=      5-min Rain = 0
KDC1 131103Z 28005KT 02/01 A3015 RMK A01 T00200011  RH  094%=      5-min Rain = 0
KDC1 131104Z 27006KT 02/01 A3015 RMK A01 T00190011  RH  094%=      5-min Rain = 0
KDC1 131105Z 28006KT 02/01 A3015 RMK A01 T00190010  RH  094%=      5-min Rain = 0
KDC1 131106Z 28006KT 02/01 A3015 RMK A01 T00180009  RH  094%=      5-min Rain = 0
KDC1 131107Z 28006KT 02/01 A3015 RMK A01 T00170009  RH  094%=      5-min Rain = 0
KDC1 131108Z 29006KT 02/01 A3015 RMK A01 T00170009  RH  095%=      5-min Rain = 0
KDC1 131109Z 28006KT 02/01 A3015 RMK A01 T00170010  RH  095%=      5-min Rain = 0
KDC1 131110Z 29006KT 02/01 A3015 RMK A01 T00170010  RH  095%=      5-min Rain = 0
KDC1 131111Z 29006KT 02/01 A3015 RMK A01 T00170010  RH  095%=      5-min Rain = 0
KDC1 131112Z 30006KT 02/01 A3015 RMK A01 T00170009  RH  095%=      5-min Rain = 0
KDC1 131113Z 29006KT 02/01 A3015 RMK A01 T00160008  RH  095%=      5-min Rain = 0
KDC1 131114Z 28005KT 02/01 A3015 RMK A01 T00150007  RH  095%=      5-min Rain = 0
KDC1 131115Z 28005KT 02/01 A3015 RMK A01 T00150007  RH  095%=      5-min Rain = 0
KDC1 131116Z 29006KT 02/01 A3015 RMK A01 T00150008  RH  095%=      5-min Rain = 0
KDC1 131117Z 29005KT 02/01 A3015 RMK A01 T00150008  RH  095%=      5-min Rain = 0
KDC1 131118Z 30006KT 02/01 A3015 RMK A01 T00150008  RH  095%=      5-min Rain = 0
KDC1 131119Z 30006KT 02/01 A3015 RMK A01 T00150007  RH  095%=      5-min Rain = 0
KDC1 131120Z 30005KT 01/01 A3016 RMK A01 T00140007  RH  095%=      5-min Rain = 0
KDC1 131121Z 30006KT 01/01 A3016 RMK A01 T00140007  RH  095%=      5-min Rain = 0
KDC1 131122Z 29005KT 01/01 A3016 RMK A01 T00130006  RH  095%=      5-min Rain = 0
KDC1 131123Z 28006KT 01/01 A3016 RMK A01 T00130006  RH  095%=      5-min Rain = 0
KDC1 131124Z 28005KT 01/01 A3016 RMK A01 T00130006  RH  095%=      5-min Rain = 0
KDC1 131125Z 28006KT 01/01 A3015 RMK A01 T00130006  RH  095%=      5-min Rain = 0
KDC1 131126Z 28006KT 01/01 A3015 RMK A01 T00130007  RH  095%=      5-min Rain = 0
KDC1 131127Z 27006KT 01/01 A3015 RMK A01 T00140007  RH  095%=      5-min Rain = 0
KDC1 131128Z 28006KT 02/01 A3015 RMK A01 T00150008  RH  096%=      5-min Rain = 0
KDC1 131129Z 27005KT 02/01 A3015 RMK A01 T00160010  RH  096%=      5-min Rain = 0
KDC1 131130Z 27005KT 02/01 A3015 RMK A01 T00170010  RH  096%=      5-min Rain = 0
KDC1 131131Z 27005KT 02/01 A3015 RMK A01 T00170010  RH  095%=      5-min Rain = 0
KDC1 131132Z 27005KT 02/01 A3015 RMK A01 T00170009  RH  095%=      5-min Rain = 0
KDC1 131133Z 27005KT 02/01 A3015 RMK A01 T00160009  RH  095%=      5-min Rain = 0
KDC1 131134Z 27005KT 02/01 A3015 RMK A01 T00170010  RH  095%=      5-min Rain = 0
KDC1 131135Z 26005KT 02/01 A3015 RMK A01 T00170010  RH  095%=      5-min Rain = 0
KDC1 131136Z 26004KT 02/01 A3014 RMK A01 T00170010  RH  095%=      5-min Rain = 0
KDC1 131137Z 26004KT 02/01 A3014 RMK A01 T00180011  RH  095%=      5-min Rain = 0
KDC1 131138Z 26004KT 02/01 A3014 RMK A01 T00180011  RH  095%=      5-min Rain = 0
KDC1 131139Z 25005KT 02/01 A3014 RMK A01 T00180011  RH  095%=      5-min Rain = 0
KDC1 131140Z 24004KT 02/01 A3014 RMK A01 T00180010  RH  094%=      5-min Rain = 0
KDC1 131141Z 24003KT 02/01 A3014 RMK A01 T00180010  RH  094%=      5-min Rain = 0
KDC1 131142Z 24002KT 02/01 A3015 RMK A01 T00180010  RH  094%=      5-min Rain = 0
KDC1 131143Z 24002KT 02/01 A3015 RMK A01 T00180009  RH  094%=      5-min Rain = 0
KDC1 131144Z 24003KT 02/01 A3015 RMK A01 T00170008  RH  094%=      5-min Rain = 0
KDC1 131145Z 23002KT 02/01 A3015 RMK A01 T00160007  RH  094%=      5-min Rain = 0
KDC1 131146Z 25002KT 02/01 A3015 RMK A01 T00160007  RH  094%=      5-min Rain = 0
KDC1 131147Z 25003KT 02/01 A3015 RMK A01 T00160007  RH  094%=      5-min Rain = 0
KDC1 131148Z 26003KT 02/01 A3015 RMK A01 T00150007  RH  094%=      5-min Rain = 0
KDC1 131149Z 27003KT 02/01 A3015 RMK A01 T00150007  RH  094%=      5-min Rain = 0
KDC1 131150Z 28002KT 02/01 A3014 RMK A01 T00150007  RH  095%=      5-min Rain = 0
KDC1 131151Z 28003KT 02/01 A3014 RMK A01 T00150007  RH  095%=      5-min Rain = 0
KDC1 131152Z 27001KT 01/01 A3014 RMK A01 T00140007  RH  095%=      5-min Rain = 0
KDC1 131153Z 26001KT 01/01 A3014 RMK A01 T00140007  RH  095%=      5-min Rain = 0
KDC1 131154Z 26000KT 01/01 A3014 RMK A01 T00130006  RH  095%=      5-min Rain = 0
KDC1 131155Z 00000KT 01/01 A3014 RMK A01 T00130005  RH  095%=      5-min Rain = 0
KDC1 131156Z 31000KT 01/01 A3014 RMK A01 T00130005  RH  095%=      5-min Rain = 0
KDC1 131157Z 30002KT 01/01 A3014 RMK A01 T00130006  RH  095%=      5-min Rain = 0
KDC1 131158Z 29001KT 01/01 A3014 RMK A01 T00130006  RH  095%=      5-min Rain = 0
KDC1 131159Z 30001KT 01/01 A3014 RMK A01 T00130006  RH  095%=      5-min Rain = 0
KDC1 131200Z 30001KT 01/01 A3014 RMK A01 T00130006  RH  095%=      5-min Rain = 0
KDC1 131201Z 29002KT 01/01 A3014 RMK A01 T00120005  RH  095%=      5-min Rain = 0
KDC1 131202Z 29003KT 01/00 A3014 RMK A01 T00110004  RH  095%=      5-min Rain = 0
KDC1 131203Z 29003KT 01/00 A3014 RMK A01 T00110004  RH  095%=      5-min Rain = 0
KDC1 131204Z 31003KT 01/00 A3014 RMK A01 T00110004  RH  095%=      5-min Rain = 0
KDC1 131205Z 33003KT 01/00 A3014 RMK A01 T00110004  RH  095%=      5-min Rain = 0
KDC1 131206Z 31003KT 01/00 A3014 RMK A01 T00100003  RH  095%=      5-min Rain = 0
KDC1 131207Z 30004KT 01/00 A3014 RMK A01 T00100003  RH  095%=      5-min Rain = 0
KDC1 131208Z 30004KT 01/00 A3014 RMK A01 T00090003  RH  095%=      5-min Rain = 0
KDC1 131209Z 30005KT 01/00 A3014 RMK A01 T00090002  RH  095%=      5-min Rain = 0
KDC1 131210Z 30004KT 01/00 A3014 RMK A01 T00090002  RH  095%=      5-min Rain = 0
KDC1 131211Z 30004KT 01/00 A3014 RMK A01 T00090002  RH  096%=      5-min Rain = 0
KDC1 131212Z 30005KT 01/00 A3015 RMK A01 T00090003  RH  096%=      5-min Rain = 0
KDC1 131213Z 30004KT 01/00 A3015 RMK A01 T00090002  RH  096%=      5-min Rain = 0
KDC1 131214Z 30004KT 01/00 A3015 RMK A01 T00080001  RH  095%=      5-min Rain = 0
KDC1 131215Z 32003KT 01/00 A3015 RMK A01 T00070000  RH  095%=      5-min Rain = 0
KDC1 131216Z 33003KT 01/00 A3015 RMK A01 T000600-0  RH  095%=      5-min Rain = 0
KDC1 131217Z 36002KT 01/M00 A3015 RMK A01 T00051001  RH  095%=      5-min Rain = 0
KDC1 131218Z 03001KT 01/M00 A3014 RMK A01 T00051001  RH  095%=      5-min Rain = 0
KDC1 131219Z 36001KT 01/00 A3014 RMK A01 T000600-0  RH  096%=      5-min Rain = 0
KDC1 131220Z 35002KT 01/00 A3014 RMK A01 T00070002  RH  096%=      5-min Rain = 0
KDC1 131221Z 03001KT 01/00 A3015 RMK A01 T00070002  RH  096%=      5-min Rain = 0
KDC1 131222Z 02002KT 01/00 A3015 RMK A01 T00080003  RH  097%=      5-min Rain = 0
KDC1 131223Z 35002KT 01/00 A3015 RMK A01 T00080003  RH  097%=      5-min Rain = 0
KDC1 131224Z 33002KT 01/00 A3015 RMK A01 T00080003  RH  097%=      5-min Rain = 0
KDC1 131225Z 32002KT 01/00 A3015 RMK A01 T00070002  RH  097%=      5-min Rain = 0
KDC1 131226Z 32001KT 01/00 A3014 RMK A01 T00070003  RH  097%=      5-min Rain = 0
KDC1 131227Z 31001KT 01/00 A3014 RMK A01 T00080003  RH  097%=      5-min Rain = 0
KDC1 131228Z 31002KT 01/00 A3014 RMK A01 T00080003  RH  097%=      5-min Rain = 0
KDC1 131229Z 31003KT 01/00 A3015 RMK A01 T00090004  RH  097%=      5-min Rain = 0
KDC1 131230Z 32002KT 01/00 A3014 RMK A01 T00090004  RH  097%=      5-min Rain = 0
KDC1 131231Z 33002KT 01/00 A3014 RMK A01 T00080003  RH  097%=      5-min Rain = 0
KDC1 131232Z 34002KT 01/00 A3014 RMK A01 T00080003  RH  097%=      5-min Rain = 0
KDC1 131233Z 34002KT 01/00 A3014 RMK A01 T00080003  RH  097%=      5-min Rain = 0
KDC1 131234Z 34003KT 01/00 A3014 RMK A01 T00060000  RH  096%=      5-min Rain = 0
KDC1 131235Z 33003KT 00/M00 A3014 RMK A01 T00041002  RH  096%=      5-min Rain = 0
KDC1 131236Z 34003KT 00/M00 A3014 RMK A01 T00041002  RH  096%=      5-min Rain = 0
KDC1 131237Z 34003KT 00/M00 A3014 RMK A01 T00031003  RH  096%=      5-min Rain = 0
KDC1 131238Z 34003KT 00/M00 A3014 RMK A01 T00021004  RH  096%=      5-min Rain = 0
KDC1 131239Z 36003KT 00/M00 A3014 RMK A01 T00011004  RH  096%=      5-min Rain = 0
KDC1 131240Z 00003KT 00/M00 A3014 RMK A01 T00011004  RH  096%=      5-min Rain = 0
KDC1 131241Z 35003KT 00/M00 A3015 RMK A01 T00021003  RH  097%=      5-min Rain = 0
KDC1 131242Z 35003KT 00/M00 A3015 RMK A01 T00031002  RH  097%=      5-min Rain = 0
KDC1 131243Z 35003KT 00/M00 A3015 RMK A01 T00031001  RH  097%=      5-min Rain = 0
KDC1 131244Z 00003KT 00/M00 A3015 RMK A01 T00031001  RH  097%=      5-min Rain = 0
KDC1 131245Z 00003KT 00/00 A3015 RMK A01 T000400-0  RH  097%=      5-min Rain = 0
KDC1 131246Z 01002KT 00/00 A3015 RMK A01 T000400-0  RH  097%=      5-min Rain = 0
KDC1 131247Z 02002KT 00/00 A3015 RMK A01 T000400-0  RH  097%=      5-min Rain = 0
KDC1 131248Z 02002KT 00/00 A3015 RMK A01 T000400-0  RH  097%=      5-min Rain = 0
KDC1 131249Z 01001KT 00/00 A3015 RMK A01 T00040000  RH  097%=      5-min Rain = 0
KDC1 131250Z 00001KT 01/00 A3015 RMK A01 T00050001  RH  098%=      5-min Rain = 0
KDC1 131251Z 36000KT 01/00 A3015 RMK A01 T00060003  RH  098%=      5-min Rain = 0
KDC1 131252Z 00000KT 01/00 A3015 RMK A01 T00070003  RH  098%=      5-min Rain = 0
KDC1 131253Z 00000KT 01/00 A3015 RMK A01 T00060003  RH  098%=      5-min Rain = 0
KDC1 131254Z 00000KT 01/00 A3015 RMK A01 T00050002  RH  098%=      5-min Rain = 0
KDC1 131255Z 05001KT 01/00 A3015 RMK A01 T00050001  RH  097%=      5-min Rain = 0
KDC1 131256Z 05002KT 00/00 A3015 RMK A01 T00040001  RH  097%=      5-min Rain = 0
KDC1 131257Z 06000KT 01/00 A3015 RMK A01 T00050001  RH  097%=      5-min Rain = 0
KDC1 131258Z 00000KT 00/00 A3015 RMK A01 T000400-0  RH  097%=      5-min Rain = 0
KDC1 131259Z 03001KT 00/M00 A3015 RMK A01 T00021002  RH  097%=      5-min Rain = 0
KDC1 131300Z 04001KT 00/M00 A3014 RMK A01 T00011003  RH  097%=      5-min Rain = 0
KDC1 131301Z 07001KT 00/M00 A3014 RMK A01 T00011003  RH  097%=      5-min Rain = 0
KDC1 131302Z 08001KT 00/M00 A3014 RMK A01 T00011004  RH  097%=      5-min Rain = 0
KDC1 131303Z 07001KT 00/M00 A3014 RMK A01 T00011004  RH  097%=      5-min Rain = 0
KDC1 131304Z 11001KT 00/00 A3014 RMK A01 T000000-4  RH  097%=      5-min Rain = 0
KDC1 131305Z 11000KT 00/01 A3014 RMK A01 T00-000-5  RH  097%=      5-min Rain = 0
KDC1 131306Z 00000KT 00/00 A3014 RMK A01 T000000-4  RH  097%=      5-min Rain = 0
KDC1 131307Z 00000KT 00/M00 A3015 RMK A01 T00031001  RH  098%=      5-min Rain = 0
KDC1 131308Z 00000KT 01/00 A3015 RMK A01 T00050002  RH  098%=      5-min Rain = 0
KDC1 131309Z 00000KT 01/00 A3015 RMK A01 T00060003  RH  098%=      5-min Rain = 0
KDC1 131310Z 00000KT 01/00 A3015 RMK A01 T00060004  RH  098%=      5-min Rain = 0
KDC1 131311Z 34001KT 01/00 A3015 RMK A01 T00060003  RH  098%=      5-min Rain = 0
KDC1 131312Z 34001KT 00/00 A3015 RMK A01 T00040000  RH  098%=      5-min Rain = 0
KDC1 131313Z 00000KT 00/M00 A3015 RMK A01 T00021002  RH  097%=      5-min Rain = 0
KDC1 131314Z 35000KT 00/M00 A3015 RMK A01 T00011003  RH  097%=      5-min Rain = 0
KDC1 131315Z 36001KT 00/M00 A3015 RMK A01 T00011003  RH  097%=      5-min Rain = 0
KDC1 131316Z 00002KT 00/00 A3015 RMK A01 T000000-3  RH  097%=      5-min Rain = 0
KDC1 131317Z 35002KT M00/M01 A3015 RMK A01 T10011006  RH  097%=      5-min Rain = 0
KDC1 131318Z 35002KT M00/M01 A3015 RMK A01 T10041009  RH  097%=      5-min Rain = 0
KDC1 131319Z 35003KT M01/M01 A3016 RMK A01 T10061011  RH  097%=      5-min Rain = 0
KDC1 131320Z 36002KT M01/M01 A3016 RMK A01 T10071012  RH  096%=      5-min Rain = 0
KDC1 131321Z 01002KT M01/M01 A3016 RMK A01 T10081013  RH  097%=      5-min Rain = 0
KDC1 131322Z 01003KT M01/M01 A3016 RMK A01 T10081012  RH  097%=      5-min Rain = 0
KDC1 131323Z 00003KT M01/M01 A3016 RMK A01 T10061010  RH  097%=      5-min Rain = 0
KDC1 131324Z 00004KT M01/M01 A3016 RMK A01 T10051008  RH  098%=      5-min Rain = 0
KDC1 131325Z 00004KT M01/M01 A3016 RMK A01 T10051008  RH  098%=      5-min Rain = 0
KDC1 131326Z 00004KT M01/M01 A3016 RMK A01 T10061010  RH  097%=      5-min Rain = 0
KDC1 131327Z 35005KT M01/M01 A3016 RMK A01 T10071011  RH  097%=      5-min Rain = 0
KDC1 131328Z 35005KT M01/M01 A3017 RMK A01 T10091013  RH  097%=      5-min Rain = 0
KDC1 131329Z 36005KT M01/M01 A3017 RMK A01 T10081012  RH  097%=      5-min Rain = 0
KDC1 131330Z 36005KT M01/M01 A3017 RMK A01 T10071010  RH  098%=      5-min Rain = 0
KDC1 131331Z 00005KT M01/M01 A3017 RMK A01 T10051008  RH  098%=      5-min Rain = 0
KDC1 131332Z 00004KT M00/M01 A3017 RMK A01 T10041007  RH  098%=      5-min Rain = 0
KDC1 131333Z 36004KT M00/M01 A3017 RMK A01 T10041006  RH  098%=      5-min Rain = 0
KDC1 131334Z 00004KT M00/M01 A3017 RMK A01 T10031006  RH  098%=      5-min Rain = 0
KDC1 131335Z 35004KT M00/M01 A3017 RMK A01 T10031005  RH  098%=      5-min Rain = 0
KDC1 131336Z 35004KT M00/M01 A3017 RMK A01 T10031006  RH  098%=      5-min Rain = 0
KDC1 131337Z 35005KT M00/M01 A3017 RMK A01 T10031006  RH  098%=      5-min Rain = 0
KDC1 131338Z 35005KT M00/M01 A3017 RMK A01 T10031005  RH  098%=      5-min Rain = 0
KDC1 131339Z 35005KT M00/M01 A3017 RMK A01 T10031006  RH  098%=      5-min Rain = 0
KDC1 131340Z 35005KT M00/M01 A3017 RMK A01 T10031006  RH  098%=      5-min Rain = 0
KDC1 131341Z 35005KT M00/M01 A3017 RMK A01 T10031006  RH  098%=      5-min Rain = 0
KDC1 131342Z 35005KT M00/M01 A3017 RMK A01 T10031006  RH  098%=      5-min Rain = 0
KDC1 131343Z 35005KT M00/M01 A3017 RMK A01 T10031005  RH  098%=      5-min Rain = 0
KDC1 131344Z 35005KT M00/M01 A3017 RMK A01 T10031006  RH  098%=      5-min Rain = 0
KDC1 131345Z 35005KT M00/M01 A3017 RMK A01 T10031006  RH  098%=      5-min Rain = 0
KDC1 131346Z 35004KT M00/M01 A3017 RMK A01 T10041006  RH  098%=      5-min Rain = 0
KDC1 131347Z 35004KT M00/M01 A3018 RMK A01 T10041006  RH  098%=      5-min Rain = 0
KDC1 131348Z 35005KT M00/M01 A3018 RMK A01 T10031006  RH  098%=      5-min Rain = 0
KDC1 131349Z 35005KT M00/M01 A3018 RMK A01 T10041006  RH  098%=      5-min Rain = 0
KDC1 131350Z 35005KT M00/M01 A3018 RMK A01 T10041006  RH  098%=      5-min Rain = 0
KDC1 131351Z 36005KT M00/M01 A3019 RMK A01 T10041006  RH  098%=      5-min Rain = 0
KDC1 131352Z 36005KT M00/M01 A3019 RMK A01 T10041006  RH  098%=      5-min Rain = 0
KDC1 131353Z 36004KT M00/M01 A3019 RMK A01 T10041006  RH  098%=      5-min Rain = 0
KDC1 131354Z 00003KT M00/M01 A3019 RMK A01 T10041006  RH  098%=      5-min Rain = 0
KDC1 131355Z 36003KT M00/M01 A3019 RMK A01 T10041006  RH  098%=      5-min Rain = 0
KDC1 131356Z 35003KT M00/M01 A3019 RMK A01 T10041006  RH  098%=      5-min Rain = 0
KDC1 131357Z 33003KT M00/M01 A3019 RMK A01 T10041007  RH  098%=      5-min Rain = 0
KDC1 131358Z 33002KT M01/M01 A3019 RMK A01 T10051007  RH  098%=      5-min Rain = 0
KDC1 131359Z 33002KT M00/M01 A3019 RMK A01 T10041007  RH  098%=      5-min Rain = 0
KDC1 131400Z 33002KT M01/M01 A3019 RMK A01 T10051008  RH  098%=      5-min Rain = 0
KDC1 131401Z 33001KT M01/M01 A3019 RMK A01 T10051008  RH  098%=      5-min Rain = 0
KDC1 131402Z 33001KT M00/M01 A3019 RMK A01 T10041007  RH  098%=      5-min Rain = 0
KDC1 131403Z 00000KT M00/M01 A3018 RMK A01 T10031005  RH  098%=      5-min Rain = 0
KDC1 131404Z 00000KT M00/M00 A3018 RMK A01 T10021004  RH  098%=      5-min Rain = 0
KDC1 131405Z 00000KT M00/M00 A3018 RMK A01 T10011003  RH  098%=      5-min Rain = 0
KDC1 131406Z 00000KT 00/00 A3018 RMK A01 T000000-2  RH  098%=      5-min Rain = 0
KDC1 131407Z 19001KT 00/M00 A3018 RMK A01 T00011001  RH  098%=      5-min Rain = 0
KDC1 131408Z 00000KT 00/00 A3018 RMK A01 T000200-0  RH  098%=      5-min Rain = 0
KDC1 131409Z 14000KT 00/M00 A3018 RMK A01 T00021001  RH  098%=      5-min Rain = 0
KDC1 131410Z 14001KT 00/M00 A3018 RMK A01 T00011002  RH  098%=      5-min Rain = 0
KDC1 131411Z 14001KT 00/00 A3018 RMK A01 T000000-3  RH  098%=      5-min Rain = 0
KDC1 131412Z 15002KT 00/00 A3018 RMK A01 T000000-3  RH  098%=      5-min Rain = 0
KDC1 131413Z 14001KT 00/M00 A3018 RMK A01 T00011003  RH  098%=      5-min Rain = 0
KDC1 131414Z 12001KT 00/M00 A3018 RMK A01 T00021002  RH  098%=      5-min Rain = 0
KDC1 131415Z 12001KT 00/00 A3018 RMK A01 T000300-0  RH  098%=      5-min Rain = 0
KDC1 131416Z 11001KT 00/00 A3018 RMK A01 T00040001  RH  098%=      5-min Rain = 0
KDC1 131417Z 11001KT 01/00 A3019 RMK A01 T00050002  RH  098%=      5-min Rain = 0
KDC1 131418Z 11002KT 01/00 A3019 RMK A01 T00060002  RH  097%=      5-min Rain = 0
KDC1 131419Z 12002KT 01/00 A3019 RMK A01 T00060002  RH  097%=      5-min Rain = 0
KDC1 131420Z 13002KT 01/00 A3018 RMK A01 T00060001  RH  097%=      5-min Rain = 0
KDC1 131421Z 12002KT 01/00 A3018 RMK A01 T00060000  RH  096%=      5-min Rain = 0
KDC1 131422Z 11002KT 01/M00 A3018 RMK A01 T00051001  RH  095%=      5-min Rain = 0
KDC1 131423Z 11002KT 01/M00 A3018 RMK A01 T00051002  RH  095%=      5-min Rain = 0
KDC1 131424Z 10002KT 01/M00 A3018 RMK A01 T00061001  RH  095%=      5-min Rain = 0
KDC1 131425Z 08002KT 01/00 A3018 RMK A01 T00080001  RH  095%=      5-min Rain = 0
KDC1 131426Z 07002KT 01/00 A3019 RMK A01 T00090002  RH  095%=      5-min Rain = 0
KDC1 131427Z 07002KT 01/00 A3019 RMK A01 T00110004  RH  095%=      5-min Rain = 0
KDC1 131428Z 07002KT 01/01 A3019 RMK A01 T00130006  RH  095%=      5-min Rain = 0
KDC1 131429Z 06002KT 01/01 A3018 RMK A01 T00140007  RH  095%=      5-min Rain = 0
KDC1 131430Z 06002KT 02/01 A3018 RMK A01 T00150007  RH  095%=      5-min Rain = 0
KDC1 131431Z 06002KT 02/01 A3018 RMK A01 T00170009  RH  095%=      5-min Rain = 0
KDC1 131432Z 06002KT 02/01 A3018 RMK A01 T00170008  RH  094%=      5-min Rain = 0
KDC1 131433Z 05002KT 02/01 A3019 RMK A01 T00170007  RH  093%=      5-min Rain = 0
KDC1 131434Z 05001KT 02/01 A3019 RMK A01 T00180007  RH  092%=      5-min Rain = 0
KDC1 131435Z 05001KT 02/01 A3019 RMK A01 T00190008  RH  092%=      5-min Rain = 0
KDC1 131436Z 04001KT 02/01 A3019 RMK A01 T00200009  RH  092%=      5-min Rain = 0
KDC1 131437Z 03001KT 02/01 A3019 RMK A01 T00210009  RH  092%=      5-min Rain = 0
KDC1 131438Z 04002KT 02/01 A3019 RMK A01 T00210008  RH  091%=      5-min Rain = 0
KDC1 131439Z 03001KT 02/01 A3019 RMK A01 T00200007  RH  091%=      5-min Rain = 0
KDC1 131440Z 02002KT 02/01 A3019 RMK A01 T00200007  RH  091%=      5-min Rain = 0
KDC1 131441Z 01002KT 02/01 A3019 RMK A01 T00190006  RH  091%=      5-min Rain = 0
KDC1 131442Z 01002KT 02/01 A3019 RMK A01 T00190007  RH  091%=      5-min Rain = 0
KDC1 131443Z 01002KT 02/01 A3019 RMK A01 T00190007  RH  092%=      5-min Rain = 0
KDC1 131444Z 01002KT 02/01 A3019 RMK A01 T00200007  RH  092%=      5-min Rain = 0
KDC1 131445Z 35002KT 02/01 A3019 RMK A01 T00200008  RH  092%=      5-min Rain = 0
KDC1 131446Z 33002KT 02/01 A3019 RMK A01 T00200008  RH  091%=      5-min Rain = 0
KDC1 131447Z 32002KT 02/01 A302 RMK A01 T00210008  RH  091%=      5-min Rain = 0
KDC1 131448Z 32002KT 02/01 A302 RMK A01 T00210008  RH  091%=      5-min Rain = 0
KDC1 131449Z 32002KT 02/01 A302 RMK A01 T00210008  RH  091%=      5-min Rain = 0
KDC1 131450Z 32002KT 02/01 A302 RMK A01 T00210008  RH  091%=      5-min Rain = 0
KDC1 131451Z 32002KT 02/01 A302 RMK A01 T00210008  RH  091%=      5-min Rain = 0
KDC1 131452Z 31003KT 02/01 A302 RMK A01 T00210008  RH  091%=      5-min Rain = 0
KDC1 131453Z 31003KT 02/01 A302 RMK A01 T00210008  RH  091%=      5-min Rain = 0
KDC1 131454Z 31003KT 02/01 A302 RMK A01 T00210008  RH  091%=      5-min Rain = 0
KDC1 131455Z 30003KT 02/01 A302 RMK A01 T00210009  RH  091%=      5-min Rain = 0
KDC1 131456Z 29003KT 02/01 A302 RMK A01 T00220010  RH  092%=      5-min Rain = 0
KDC1 131457Z 29004KT 02/01 A302 RMK A01 T00220010  RH  092%=      5-min Rain = 0
KDC1 131458Z 29004KT 02/01 A302 RMK A01 T00230011  RH  092%=      5-min Rain = 0
KDC1 131459Z 30004KT 02/01 A302 RMK A01 T00230012  RH  092%=      5-min Rain = 0
KDC1 131500Z 30004KT 02/01 A302 RMK A01 T00240013  RH  093%=      5-min Rain = 0
KDC1 131501Z 30003KT 02/01 A302 RMK A01 T00240014  RH  093%=      5-min Rain = 0
KDC1 131502Z 30003KT 03/02 A302 RMK A01 T00250015  RH  093%=      5-min Rain = 0
KDC1 131503Z 30003KT 03/02 A302 RMK A01 T00260015  RH  093%=      5-min Rain = 0
KDC1 131504Z 29004KT 03/02 A302 RMK A01 T00260015  RH  093%=      5-min Rain = 0
KDC1 131505Z 29004KT 03/02 A302 RMK A01 T00260016  RH  093%=      5-min Rain = 0
KDC1 131506Z 29004KT 03/02 A302 RMK A01 T00270017  RH  093%=      5-min Rain = 0
KDC1 131507Z 29004KT 03/02 A302 RMK A01 T00270017  RH  093%=      5-min Rain = 0
KDC1 131508Z 28003KT 03/02 A302 RMK A01 T00270017  RH  093%=      5-min Rain = 0
KDC1 131509Z 28004KT 03/02 A302 RMK A01 T00280018  RH  093%=      5-min Rain = 0
KDC1 131510Z 29003KT 03/02 A302 RMK A01 T00290019  RH  093%=      5-min Rain = 0
KDC1 131511Z 29004KT 03/02 A302 RMK A01 T00300020  RH  093%=      5-min Rain = 0
KDC1 131512Z 29004KT 03/02 A302 RMK A01 T00310020  RH  093%=      5-min Rain = 0
KDC1 131513Z 29003KT 03/02 A302 RMK A01 T00320022  RH  093%=      5-min Rain = 0
KDC1 131514Z 30002KT 03/02 A302 RMK A01 T00330022  RH  093%=      5-min Rain = 0
KDC1 131515Z 30003KT 03/02 A302 RMK A01 T00340023  RH  092%=      5-min Rain = 0
KDC1 131516Z 30002KT 03/02 A302 RMK A01 T00340023  RH  092%=      5-min Rain = 0
KDC1 131517Z 29002KT 04/02 A302 RMK A01 T00350023  RH  092%=      5-min Rain = 0
KDC1 131518Z 28002KT 04/02 A3019 RMK A01 T00360024  RH  092%=      5-min Rain = 0
KDC1 131519Z 27002KT 04/03 A3019 RMK A01 T00370025  RH  092%=      5-min Rain = 0
KDC1 131520Z 26001KT 04/03 A3019 RMK A01 T00380025  RH  092%=      5-min Rain = 0
KDC1 131521Z 25001KT 04/03 A3019 RMK A01 T00380026  RH  092%=      5-min Rain = 0
KDC1 131522Z 26000KT 04/03 A3019 RMK A01 T00390026  RH  091%=      5-min Rain = 0
KDC1 131523Z 28001KT 04/03 A3019 RMK A01 T00400026  RH  091%=      5-min Rain = 0
KDC1 131524Z 26001KT 04/03 A3019 RMK A01 T00410026  RH  091%=      5-min Rain = 0
KDC1 131525Z 25002KT 04/03 A3019 RMK A01 T00410026  RH  090%=      5-min Rain = 0
KDC1 131526Z 26002KT 04/03 A3019 RMK A01 T00410025  RH  090%=      5-min Rain = 0
KDC1 131527Z 27002KT 04/03 A3019 RMK A01 T00410025  RH  090%=      5-min Rain = 0
KDC1 131528Z 26002KT 04/03 A3019 RMK A01 T00420026  RH  089%=      5-min Rain = 0
KDC1 131529Z 25002KT 04/03 A3019 RMK A01 T00420027  RH  090%=      5-min Rain = 0
KDC1 131530Z 26002KT 04/03 A3019 RMK A01 T00430027  RH  089%=      5-min Rain = 0
KDC1 131531Z 26001KT 04/03 A3019 RMK A01 T00440027  RH  089%=      5-min Rain = 0
KDC1 131532Z 26001KT 05/03 A3019 RMK A01 T00450026  RH  088%=      5-min Rain = 0
KDC1 131533Z 25001KT 05/03 A3019 RMK A01 T00460028  RH  088%=      5-min Rain = 0
KDC1 131534Z 25002KT 05/03 A3019 RMK A01 T00480030  RH  088%=      5-min Rain = 0
KDC1 131535Z 26002KT 05/03 A3019 RMK A01 T00490032  RH  089%=      5-min Rain = 0
KDC1 131536Z 26002KT 05/03 A3019 RMK A01 T00510033  RH  088%=      5-min Rain = 0
KDC1 131537Z 25002KT 05/03 A3019 RMK A01 T00510033  RH  088%=      5-min Rain = 0
KDC1 131538Z 26001KT 05/03 A3019 RMK A01 T00520032  RH  087%=      5-min Rain = 0
KDC1 131539Z 28001KT 05/03 A3019 RMK A01 T00520032  RH  087%=      5-min Rain = 0
KDC1 131540Z 29001KT 05/03 A3019 RMK A01 T00530032  RH  086%=      5-min Rain = 0
KDC1 131541Z 29001KT 05/03 A3019 RMK A01 T00540034  RH  087%=      5-min Rain = 0
KDC1 131542Z 29000KT 06/03 A3019 RMK A01 T00550034  RH  086%=      5-min Rain = 0
KDC1 131543Z 00000KT 06/04 A3019 RMK A01 T00560035  RH  086%=      5-min Rain = 0
KDC1 131544Z 35000KT 06/04 A3019 RMK A01 T00570036  RH  086%=      5-min Rain = 0
KDC1 131545Z 00000KT 06/04 A3019 RMK A01 T00580036  RH  086%=      5-min Rain = 0
KDC1 131546Z 00000KT 06/04 A3019 RMK A01 T00590036  RH  085%=      5-min Rain = 0
KDC1 131547Z 00000KT 06/04 A3019 RMK A01 T00590036  RH  085%=      5-min Rain = 0
KDC1 131548Z 00000KT 06/04 A3019 RMK A01 T00600037  RH  085%=      5-min Rain = 0
KDC1 131549Z 00000KT 06/04 A3019 RMK A01 T00610038  RH  085%=      5-min Rain = 0
KDC1 131550Z 32001KT 06/04 A3019 RMK A01 T00610037  RH  085%=      5-min Rain = 0
KDC1 131551Z 29000KT 06/04 A3019 RMK A01 T00620038  RH  085%=      5-min Rain = 0
KDC1 131552Z 00000KT 06/04 A3019 RMK A01 T00630039  RH  085%=      5-min Rain = 0
KDC1 131553Z 02001KT 06/04 A3019 RMK A01 T00640038  RH  083%=      5-min Rain = 0
KDC1 131554Z 03000KT 07/04 A3019 RMK A01 T00650036  RH  082%=      5-min Rain = 0
KDC1 131555Z 06000KT 06/03 A3019 RMK A01 T00640034  RH  081%=      5-min Rain = 0
KDC1 131556Z 07000KT 07/04 A3019 RMK A01 T00650035  RH  081%=      5-min Rain = 0
KDC1 131557Z 07000KT 07/04 A3019 RMK A01 T00670037  RH  081%=      5-min Rain = 0
KDC1 131558Z 05000KT 07/04 A3019 RMK A01 T00680036  RH  080%=      5-min Rain = 0
KDC1 131559Z 08000KT 07/03 A3019 RMK A01 T00680034  RH  079%=      5-min Rain = 0
KDC1 131600Z 00000KT 07/03 A3019 RMK A01 T00680034  RH  079%=      5-min Rain = 0
KDC1 131601Z 00000KT 07/04 A3019 RMK A01 T00690036  RH  079%=      5-min Rain = 0
KDC1 131602Z 23000KT 07/04 A3019 RMK A01 T00700037  RH  079%=      5-min Rain = 0
KDC1 131603Z 00000KT 07/04 A3019 RMK A01 T00720039  RH  079%=      5-min Rain = 0
KDC1 131604Z 00000KT 08/04 A3019 RMK A01 T00760042  RH  079%=      5-min Rain = 0
KDC1 131605Z 00000KT 08/04 A3019 RMK A01 T00810042  RH  077%=      5-min Rain = 0
KDC1 131606Z 00000KT 08/04 A3019 RMK A01 T00820040  RH  075%=      5-min Rain = 0
KDC1 131607Z 04000KT 08/04 A3019 RMK A01 T00820040  RH  075%=      5-min Rain = 0
KDC1 131608Z 09000KT 08/04 A3019 RMK A01 T00810041  RH  076%=      5-min Rain = 0
KDC1 131609Z 00000KT 08/04 A3019 RMK A01 T00810041  RH  076%=      5-min Rain = 0
KDC1 131610Z 00000KT 08/04 A3019 RMK A01 T00820040  RH  074%=      5-min Rain = 0
KDC1 131611Z 00000KT 08/04 A3019 RMK A01 T00830040  RH  075%=      5-min Rain = 0
KDC1 131612Z 17000KT 08/04 A3019 RMK A01 T00830042  RH  075%=      5-min Rain = 0
KDC1 131613Z 16001KT 09/04 A3019 RMK A01 T00850041  RH  074%=      5-min Rain = 0
KDC1 131614Z 17001KT 09/04 A3019 RMK A01 T00860037  RH  071%=      5-min Rain = 0
KDC1 131615Z 17001KT 09/03 A3018 RMK A01 T00850034  RH  070%=      5-min Rain = 0
KDC1 131616Z 17000KT 08/03 A3018 RMK A01 T00840034  RH  070%=      5-min Rain = 0
KDC1 131617Z 00000KT 09/04 A3018 RMK A01 T00860038  RH  072%=      5-min Rain = 0
KDC1 131618Z 29000KT 09/04 A3019 RMK A01 T00880039  RH  071%=      5-min Rain = 0
KDC1 131619Z 28001KT 09/04 A3019 RMK A01 T00880037  RH  071%=      5-min Rain = 0
KDC1 131620Z 26001KT 09/04 A3019 RMK A01 T00850037  RH  072%=      5-min Rain = 0
KDC1 131621Z 27000KT 08/04 A3019 RMK A01 T00820036  RH  073%=      5-min Rain = 0
KDC1 131622Z 28001KT 08/04 A3019 RMK A01 T00820040  RH  075%=      5-min Rain = 0
KDC1 131623Z 30002KT 08/04 A3019 RMK A01 T00810039  RH  075%=      5-min Rain = 0
KDC1 131624Z 30002KT 08/04 A3019 RMK A01 T00790038  RH  075%=      5-min Rain = 0
KDC1 131625Z 28001KT 08/04 A3019 RMK A01 T00770036  RH  075%=      5-min Rain = 0
KDC1 131626Z 26000KT 08/04 A3019 RMK A01 T00760036  RH  076%=      5-min Rain = 0
KDC1 131627Z 30000KT 08/04 A3019 RMK A01 T00770037  RH  076%=      5-min Rain = 0
KDC1 131628Z 29001KT 08/04 A302 RMK A01 T00780037  RH  075%=      5-min Rain = 0
KDC1 131629Z 30001KT 08/04 A302 RMK A01 T00780039  RH  076%=      5-min Rain = 0
KDC1 131630Z 24001KT 08/04 A302 RMK A01 T00790040  RH  076%=      5-min Rain = 0
KDC1 131631Z 22001KT 08/04 A3019 RMK A01 T00800039  RH  075%=      5-min Rain = 0
KDC1 131632Z 19000KT 08/04 A3019 RMK A01 T00820042  RH  076%=      5-min Rain = 0
KDC1 131633Z 15000KT 09/04 A3019 RMK A01 T00850042  RH  075%=      5-min Rain = 0
KDC1 131634Z 00000KT 09/04 A3019 RMK A01 T00880044  RH  074%=      5-min Rain = 0
KDC1 131635Z 00000KT 09/04 A3019 RMK A01 T00900042  RH  072%=      5-min Rain = 0
KDC1 131636Z 03000KT 09/04 A3019 RMK A01 T00900041  RH  072%=      5-min Rain = 0
KDC1 131637Z 05000KT 09/04 A3019 RMK A01 T00890041  RH  072%=      5-min Rain = 0
KDC1 131638Z 10001KT 09/04 A3019 RMK A01 T00880040  RH  072%=      5-min Rain = 0
KDC1 131639Z 09001KT 09/04 A3019 RMK A01 T00880040  RH  071%=      5-min Rain = 0
KDC1 131640Z 11001KT 09/04 A3019 RMK A01 T00900042  RH  072%=      5-min Rain = 0
KDC1 131641Z 10000KT 09/04 A3019 RMK A01 T00920040  RH  070%=      5-min Rain = 0
KDC1 131642Z 16000KT 09/04 A3019 RMK A01 T00920040  RH  070%=      5-min Rain = 0
KDC1 131643Z 01000KT 09/04 A3019 RMK A01 T00920041  RH  070%=      5-min Rain = 0
KDC1 131644Z 02000KT 09/04 A302 RMK A01 T00930042  RH  071%=      5-min Rain = 0
KDC1 131645Z 35000KT 09/04 A3019 RMK A01 T00920041  RH  070%=      5-min Rain = 0
KDC1 131646Z 00000KT 09/04 A3019 RMK A01 T00920041  RH  070%=      5-min Rain = 0
KDC1 131647Z 18001KT 09/04 A3019 RMK A01 T00940044  RH  071%=      5-min Rain = 0
KDC1 131648Z 16001KT 10/04 A3019 RMK A01 T00950043  RH  070%=      5-min Rain = 0
KDC1 131649Z 06001KT 10/04 A3019 RMK A01 T00950043  RH  070%=      5-min Rain = 0
KDC1 131650Z 05002KT 10/05 A3019 RMK A01 T00960047  RH  071%=      5-min Rain = 0
KDC1 131651Z 01002KT 10/05 A3019 RMK A01 T00950045  RH  071%=      5-min Rain = 0
KDC1 131652Z 02002KT 09/04 A3019 RMK A01 T00940042  RH  070%=      5-min Rain = 0
KDC1 131653Z 04001KT 09/04 A3019 RMK A01 T00930044  RH  071%=      5-min Rain = 0
KDC1 131654Z 08001KT 09/04 A3019 RMK A01 T00920042  RH  071%=      5-min Rain = 0
KDC1 131655Z 06001KT 09/04 A3019 RMK A01 T00910041  RH  071%=      5-min Rain = 0
KDC1 131656Z 05001KT 09/04 A3019 RMK A01 T00920039  RH  070%=      5-min Rain = 0
KDC1 131657Z 04001KT 09/04 A3019 RMK A01 T00920039  RH  070%=      5-min Rain = 0
KDC1 131658Z 04000KT 09/04 A3019 RMK A01 T00940041  RH  070%=      5-min Rain = 0
KDC1 131659Z 00000KT 09/04 A3019 RMK A01 T00940040  RH  069%=      5-min Rain = 0
KDC1 131700Z 00000KT 10/04 A3019 RMK A01 T00960041  RH  068%=      5-min Rain = 0
KDC1 131701Z 05001KT 10/05 A3019 RMK A01 T00980045  RH  070%=      5-min Rain = 0
KDC1 131702Z 04001KT 10/05 A3019 RMK A01 T00980045  RH  069%=      5-min Rain = 0
KDC1 131703Z 02002KT 10/04 A3019 RMK A01 T00980044  RH  069%=      5-min Rain = 0
KDC1 131704Z 03002KT 10/04 A3019 RMK A01 T00970042  RH  068%=      5-min Rain = 0
KDC1 131705Z 03002KT 10/04 A3019 RMK A01 T00970042  RH  069%=      5-min Rain = 0
KDC1 131706Z 03003KT 10/04 A3019 RMK A01 T00970043  RH  069%=      5-min Rain = 0
KDC1 131707Z 02002KT 10/04 A3019 RMK A01 T00970041  RH  068%=      5-min Rain = 0
KDC1 131708Z 01002KT 10/04 A3019 RMK A01 T00960037  RH  067%=      5-min Rain = 0
KDC1 131709Z 01002KT 10/04 A3019 RMK A01 T00950038  RH  067%=      5-min Rain = 0
KDC1 131710Z 02002KT 10/04 A3019 RMK A01 T00960040  RH  068%=      5-min Rain = 0
KDC1 131711Z 00002KT 10/04 A3019 RMK A01 T00980039  RH  067%=      5-min Rain = 0
KDC1 131712Z 34001KT 10/04 A3019 RMK A01 T00990040  RH  066%=      5-min Rain = 0
KDC1 131713Z 06001KT 10/04 A3019 RMK A01 T01000040  RH  067%=      5-min Rain = 0
KDC1 131714Z 06002KT 10/04 A3019 RMK A01 T01020041  RH  066%=      5-min Rain = 0
KDC1 131715Z 09003KT 10/04 A3018 RMK A01 T01020036  RH  064%=      5-min Rain = 0
KDC1 131716Z 08003KT 10/04 A3018 RMK A01 T01020035  RH  063%=      5-min Rain = 0
KDC1 131717Z 07002KT 10/03 A3018 RMK A01 T01020034  RH  063%=      5-min Rain = 0
KDC1 131718Z 09000KT 10/04 A3018 RMK A01 T01030036  RH  063%=      5-min Rain = 0
KDC1 131719Z 00000KT 11/04 A3018 RMK A01 T01050035  RH  062%=      5-min Rain = 0
KDC1 131720Z 08001KT 11/04 A3017 RMK A01 T01070035  RH  061%=      5-min Rain = 0
KDC1 131721Z 09001KT 11/04 A3017 RMK A01 T01080038  RH  062%=      5-min Rain = 0
KDC1 131722Z 10003KT 11/04 A3017 RMK A01 T01090041  RH  063%=      5-min Rain = 0
KDC1 131723Z 10002KT 11/04 A3017 RMK A01 T01090043  RH  064%=      5-min Rain = 0
KDC1 131724Z 10002KT 11/04 A3017 RMK A01 T01070043  RH  064%=      5-min Rain = 0
KDC1 131725Z 08002KT 11/05 A3017 RMK A01 T01060045  RH  066%=      5-min Rain = 0
KDC1 131726Z 09002KT 11/04 A3017 RMK A01 T01060044  RH  065%=      5-min Rain = 0
KDC1 131727Z 09001KT 11/05 A3017 RMK A01 T01060045  RH  066%=      5-min Rain = 0
KDC1 131728Z 06001KT 11/04 A3017 RMK A01 T01060043  RH  065%=      5-min Rain = 0
KDC1 131729Z 06001KT 11/04 A3016 RMK A01 T01060042  RH  065%=      5-min Rain = 0
KDC1 131730Z 02000KT 11/04 A3016 RMK A01 T01060044  RH  066%=      5-min Rain = 0
KDC1 131731Z 08000KT 11/05 A3016 RMK A01 T01070046  RH  066%=      5-min Rain = 0
KDC1 131732Z 08002KT 11/05 A3016 RMK A01 T01080047  RH  066%=      5-min Rain = 0
KDC1 131733Z 07002KT 11/04 A3016 RMK A01 T01080044  RH  065%=      5-min Rain = 0
KDC1 131734Z 08002KT 11/05 A3016 RMK A01 T01080045  RH  065%=      5-min Rain = 0
KDC1 131735Z 06002KT 11/05 A3015 RMK A01 T01080047  RH  066%=      5-min Rain = 0
KDC1 131736Z 06001KT 11/04 A3015 RMK A01 T01100044  RH  064%=      5-min Rain = 0
KDC1 131737Z 09002KT 11/04 A3015 RMK A01 T01100043  RH  064%=      5-min Rain = 0
KDC1 131738Z 07003KT 11/05 A3015 RMK A01 T01110046  RH  065%=      5-min Rain = 0
KDC1 131739Z 08002KT 11/05 A3015 RMK A01 T01110045  RH  064%=      5-min Rain = 0
KDC1 131740Z 08002KT 11/05 A3015 RMK A01 T01110047  RH  064%=      5-min Rain = 0
KDC1 131741Z 08002KT 11/05 A3015 RMK A01 T01120045  RH  063%=      5-min Rain = 0
KDC1 131742Z 09003KT 11/05 A3015 RMK A01 T01130045  RH  063%=      5-min Rain = 0
KDC1 131743Z 09003KT 11/05 A3015 RMK A01 T01130045  RH  063%=      5-min Rain = 0
KDC1 131744Z 10002KT 11/05 A3015 RMK A01 T01140047  RH  064%=      5-min Rain = 0
KDC1 131745Z 10002KT 12/05 A3015 RMK A01 T01150047  RH  063%=      5-min Rain = 0
KDC1 131746Z 07002KT 12/05 A3015 RMK A01 T01160048  RH  063%=      5-min Rain = 0
KDC1 131747Z 08002KT 12/05 A3015 RMK A01 T01160049  RH  063%=      5-min Rain = 0
KDC1 131748Z 08002KT 12/05 A3015 RMK A01 T01170051  RH  064%=      5-min Rain = 0
KDC1 131749Z 08002KT 12/05 A3015 RMK A01 T01180050  RH  063%=      5-min Rain = 0
KDC1 131750Z 08002KT 12/05 A3015 RMK A01 T01190052  RH  064%=      5-min Rain = 0
KDC1 131751Z 06002KT 12/06 A3015 RMK A01 T01210055  RH  064%=      5-min Rain = 0
KDC1 131752Z 07002KT 12/06 A3015 RMK A01 T01220055  RH  064%=      5-min Rain = 0
KDC1 131753Z 08003KT 12/05 A3015 RMK A01 T01230054  RH  063%=      5-min Rain = 0
KDC1 131754Z 09002KT 12/05 A3015 RMK A01 T01240054  RH  062%=      5-min Rain = 0
KDC1 131755Z 07002KT 12/05 A3015 RMK A01 T01240052  RH  061%=      5-min Rain = 0
KDC1 131756Z 07004KT 12/05 A3015 RMK A01 T01240052  RH  061%=      5-min Rain = 0
KDC1 131757Z 07002KT 12/05 A3015 RMK A01 T01240050  RH  061%=      5-min Rain = 0
KDC1 131758Z 07002KT 12/05 A3015 RMK A01 T01230051  RH  061%=      5-min Rain = 0
KDC1 131759Z 09002KT 13/05 A3014 RMK A01 T01250054  RH  062%=      5-min Rain = 0
KDC1 131800Z 11003KT 13/05 A3014 RMK A01 T01260051  RH  060%=      5-min Rain = 0
KDC1 131801Z 09002KT 13/05 A3014 RMK A01 T01260048  RH  059%=      5-min Rain = 0
KDC1 131802Z 10002KT 13/05 A3014 RMK A01 T01250048  RH  059%=      5-min Rain = 0
KDC1 131803Z 09001KT 13/05 A3014 RMK A01 T01260050  RH  060%=      5-min Rain = 0
KDC1 131804Z 11001KT 13/05 A3014 RMK A01 T01280051  RH  060%=      5-min Rain = 0
KDC1 131805Z 12002KT 13/05 A3014 RMK A01 T01290051  RH  059%=      5-min Rain = 0
KDC1 131806Z 14001KT 13/05 A3014 RMK A01 T01300053  RH  059%=      5-min Rain = 0
KDC1 131807Z 14001KT 13/05 A3014 RMK A01 T01330052  RH  058%=      5-min Rain = 0
KDC1 131808Z 19000KT 13/05 A3014 RMK A01 T01340050  RH  057%=      5-min Rain = 0
KDC1 131809Z 00000KT 14/05 A3014 RMK A01 T01350048  RH  056%=      5-min Rain = 0
KDC1 131810Z 12001KT 14/05 A3014 RMK A01 T01360050  RH  056%=      5-min Rain = 0
KDC1 131811Z 12002KT 14/06 A3014 RMK A01 T01380055  RH  057%=      5-min Rain = 0
KDC1 131812Z 11002KT 14/05 A3014 RMK A01 T01380054  RH  057%=      5-min Rain = 0
KDC1 131813Z 10002KT 14/06 A3014 RMK A01 T01380057  RH  058%=      5-min Rain = 0
KDC1 131814Z 15003KT 14/06 A3014 RMK A01 T01390059  RH  058%=      5-min Rain = 0
KDC1 131815Z 15002KT 14/05 A3014 RMK A01 T01390052  RH  056%=      5-min Rain = 0
KDC1 131816Z 07001KT 14/05 A3014 RMK A01 T01390053  RH  056%=      5-min Rain = 0
KDC1 131817Z 10001KT 14/06 A3014 RMK A01 T01390056  RH  057%=      5-min Rain = 0
KDC1 131818Z 09002KT 14/06 A3014 RMK A01 T01400059  RH  058%=      5-min Rain = 0
KDC1 131819Z 09003KT 14/06 A3013 RMK A01 T01400055  RH  057%=      5-min Rain = 0
KDC1 131820Z 10003KT 14/06 A3014 RMK A01 T01380057  RH  058%=      5-min Rain = 0
KDC1 131821Z 09001KT 14/06 A3013 RMK A01 T01380056  RH  058%=      5-min Rain = 0
KDC1 131822Z 12001KT 14/06 A3013 RMK A01 T01380055  RH  057%=      5-min Rain = 0
KDC1 131823Z 08000KT 14/06 A3013 RMK A01 T01400055  RH  057%=      5-min Rain = 0
KDC1 131824Z 09002KT 14/06 A3013 RMK A01 T01410055  RH  056%=      5-min Rain = 0
KDC1 131825Z 10003KT 14/06 A3013 RMK A01 T01420059  RH  058%=      5-min Rain = 0
KDC1 131826Z 08004KT 14/06 A3013 RMK A01 T01400059  RH  058%=      5-min Rain = 0
KDC1 131827Z 08004KT 14/06 A3013 RMK A01 T01390058  RH  058%=      5-min Rain = 0
KDC1 131828Z 09004KT 14/06 A3013 RMK A01 T01370057  RH  058%=      5-min Rain = 0
KDC1 131829Z 08004KT 14/06 A3013 RMK A01 T01370058  RH  059%=      5-min Rain = 0
KDC1 131830Z 08003KT 14/06 A3013 RMK A01 T01370057  RH  058%=      5-min Rain = 0
KDC1 131831Z 09002KT 14/06 A3012 RMK A01 T01360057  RH  059%=      5-min Rain = 0
KDC1 131832Z 11002KT 14/06 A3012 RMK A01 T01360056  RH  058%=      5-min Rain = 0
KDC1 131833Z 10003KT 14/06 A3012 RMK A01 T01370057  RH  058%=      5-min Rain = 0
KDC1 131834Z 08003KT 14/06 A3012 RMK A01 T01370057  RH  059%=      5-min Rain = 0
KDC1 131835Z 07003KT 14/06 A3012 RMK A01 T01360057  RH  059%=      5-min Rain = 0
KDC1 131836Z 07004KT 14/06 A3012 RMK A01 T01360060  RH  060%=      5-min Rain = 0
KDC1 131837Z 07004KT 14/06 A3012 RMK A01 T01370059  RH  059%=      5-min Rain = 0
KDC1 131838Z 10004KT 14/06 A3012 RMK A01 T01370058  RH  059%=      5-min Rain = 0
KDC1 131839Z 09003KT 14/06 A3012 RMK A01 T01360057  RH  059%=      5-min Rain = 0
KDC1 131840Z 09003KT 14/06 A3012 RMK A01 T01360058  RH  060%=      5-min Rain = 0
KDC1 131841Z 07003KT 14/06 A3012 RMK A01 T01360058  RH  059%=      5-min Rain = 0
KDC1 131842Z 07004KT 14/06 A3012 RMK A01 T01360060  RH  060%=      5-min Rain = 0
KDC1 131843Z 08003KT 14/06 A3012 RMK A01 T01370058  RH  059%=      5-min Rain = 0
KDC1 131844Z 08002KT 14/06 A3011 RMK A01 T01380061  RH  060%=      5-min Rain = 0
KDC1 131845Z 09002KT 14/06 A3011 RMK A01 T01390058  RH  058%=      5-min Rain = 0
KDC1 131846Z 10000KT 14/06 A3011 RMK A01 T01400057  RH  057%=      5-min Rain = 0
KDC1 131847Z 06002KT 14/06 A3011 RMK A01 T01420060  RH  058%=      5-min Rain = 0
KDC1 131848Z 09003KT 14/06 A3011 RMK A01 T01440062  RH  058%=      5-min Rain = 0
KDC1 131849Z 07003KT 15/06 A3011 RMK A01 T01450058  RH  056%=      5-min Rain = 0
KDC1 131850Z 08002KT 15/06 A3011 RMK A01 T01450057  RH  056%=      5-min Rain = 0
KDC1 131851Z 06002KT 14/06 A3011 RMK A01 T01440057  RH  056%=      5-min Rain = 0
KDC1 131852Z 08002KT 15/06 A3011 RMK A01 T01450057  RH  056%=      5-min Rain = 0
KDC1 131853Z 09001KT 15/06 A3011 RMK A01 T01450056  RH  055%=      5-min Rain = 0
KDC1 131854Z 07002KT 15/06 A3011 RMK A01 T01460057  RH  055%=      5-min Rain = 0
KDC1 131855Z 06003KT 15/06 A3011 RMK A01 T01470056  RH  055%=      5-min Rain = 0
KDC1 131856Z 04001KT 15/06 A3011 RMK A01 T01470059  RH  056%=      5-min Rain = 0
KDC1 131857Z 06001KT 15/05 A3011 RMK A01 T01470054  RH  054%=      5-min Rain = 0
KDC1 131858Z 09002KT 15/06 A3011 RMK A01 T01480057  RH  055%=      5-min Rain = 0
KDC1 131859Z 08001KT 15/06 A3011 RMK A01 T01490059  RH  055%=      5-min Rain = 0
KDC1 131900Z 06002KT 15/06 A3011 RMK A01 T01490060  RH  055%=      5-min Rain = 0
KDC1 131901Z 07002KT 15/06 A3011 RMK A01 T01510062  RH  056%=      5-min Rain = 0
KDC1 131902Z 07002KT 15/06 A3011 RMK A01 T01510061  RH  055%=      5-min Rain = 0
KDC1 131903Z 07003KT 15/06 A3011 RMK A01 T01500058  RH  054%=      5-min Rain = 0
KDC1 131904Z 07002KT 15/06 A3011 RMK A01 T01500057  RH  054%=      5-min Rain = 0
KDC1 131905Z 08002KT 15/06 A3011 RMK A01 T01500058  RH  054%=      5-min Rain = 0
KDC1 131906Z 08003KT 15/06 A3011 RMK A01 T01500058  RH  054%=      5-min Rain = 0
KDC1 131907Z 10004KT 15/06 A301 RMK A01 T01500061  RH  055%=      5-min Rain = 0
KDC1 131908Z 11003KT 15/06 A301 RMK A01 T01520061  RH  055%=      5-min Rain = 0
KDC1 131909Z 09003KT 15/06 A301 RMK A01 T01510060  RH  054%=      5-min Rain = 0
KDC1 131910Z 10003KT 15/06 A301 RMK A01 T01520059  RH  054%=      5-min Rain = 0
KDC1 131911Z 10002KT 15/06 A301 RMK A01 T01510057  RH  053%=      5-min Rain = 0
KDC1 131912Z 09003KT 15/06 A301 RMK A01 T01510057  RH  053%=      5-min Rain = 0
KDC1 131913Z 07002KT 15/06 A301 RMK A01 T01520058  RH  053%=      5-min Rain = 0
KDC1 131914Z 07002KT 15/06 A301 RMK A01 T01520060  RH  054%=      5-min Rain = 0
KDC1 131915Z 08002KT 15/06 A301 RMK A01 T01530057  RH  053%=      5-min Rain = 0
KDC1 131916Z 10002KT 16/06 A301 RMK A01 T01550063  RH  054%=      5-min Rain = 0
KDC1 131917Z 10003KT 16/06 A301 RMK A01 T01570063  RH  053%=      5-min Rain = 0
KDC1 131918Z 12004KT 16/06 A3009 RMK A01 T01590063  RH  053%=      5-min Rain = 0
KDC1 131919Z 11004KT 16/06 A3009 RMK A01 T01590060  RH  052%=      5-min Rain = 0
KDC1 131920Z 12003KT 16/06 A3009 RMK A01 T01570058  RH  052%=      5-min Rain = 0
KDC1 131921Z 11003KT 16/06 A3009 RMK A01 T01560060  RH  053%=      5-min Rain = 0
KDC1 131922Z 08002KT 16/06 A3009 RMK A01 T01560059  RH  053%=      5-min Rain = 0
KDC1 131923Z 06002KT 16/06 A3009 RMK A01 T01560061  RH  053%=      5-min Rain = 0
KDC1 131924Z 08003KT 16/06 A3009 RMK A01 T01560062  RH  053%=      5-min Rain = 0
KDC1 131925Z 10003KT 16/06 A3009 RMK A01 T01560063  RH  054%=      5-min Rain = 0
KDC1 131926Z 11005KT 16/06 A3008 RMK A01 T01560061  RH  053%=      5-min Rain = 0
KDC1 131927Z 10003KT 16/06 A3008 RMK A01 T01560060  RH  053%=      5-min Rain = 0
KDC1 131928Z 10004KT 16/06 A3008 RMK A01 T01570062  RH  053%=      5-min Rain = 0
KDC1 131929Z 09005KT 16/06 A3008 RMK A01 T01570061  RH  053%=      5-min Rain = 0
KDC1 131930Z 09004KT 16/06 A3008 RMK A01 T01550060  RH  053%=      5-min Rain = 0
KDC1 131931Z 10004KT 16/06 A3008 RMK A01 T01550062  RH  054%=      5-min Rain = 0
KDC1 131932Z 10005KT 16/06 A3008 RMK A01 T01560063  RH  054%=      5-min Rain = 0
KDC1 131933Z 10005KT 16/06 A3008 RMK A01 T01560064  RH  054%=      5-min Rain = 0
KDC1 131934Z 10006KT 16/06 A3007 RMK A01 T01570064  RH  054%=      5-min Rain = 0
KDC1 131935Z 10006KT 16/06 A3007 RMK A01 T01570064  RH  054%=      5-min Rain = 0
KDC1 131936Z 11005KT 16/06 A3007 RMK A01 T01560063  RH  054%=      5-min Rain = 0
KDC1 131937Z 12004KT 16/07 A3007 RMK A01 T01550071  RH  057%=      5-min Rain = 0
KDC1 131938Z 11005KT 16/07 A3007 RMK A01 T01550071  RH  057%=      5-min Rain = 0
KDC1 131939Z 10005KT 16/07 A3007 RMK A01 T01560069  RH  056%=      5-min Rain = 0
KDC1 131940Z 09005KT 16/07 A3007 RMK A01 T01560065  RH  055%=      5-min Rain = 0
KDC1 131941Z 09006KT 16/06 A3007 RMK A01 T01570064  RH  054%=      5-min Rain = 0
KDC1 131942Z 09006KT 16/06 A3007 RMK A01 T01570064  RH  054%=      5-min Rain = 0
KDC1 131943Z 09006KT 16/06 A3007 RMK A01 T01570061  RH  053%=      5-min Rain = 0
KDC1 131944Z 10005KT 16/06 A3007 RMK A01 T01570063  RH  053%=      5-min Rain = 0
KDC1 131945Z 10005KT 16/07 A3007 RMK A01 T01590065  RH  054%=      5-min Rain = 0
KDC1 131946Z 10006KT 16/07 A3007 RMK A01 T01600065  RH  053%=      5-min Rain = 0
KDC1 131947Z 10006KT 16/06 A3007 RMK A01 T01600063  RH  052%=      5-min Rain = 0
KDC1 131948Z 09006KT 16/06 A3007 RMK A01 T01600061  RH  052%=      5-min Rain = 0
KDC1 131949Z 09005KT 16/06 A3007 RMK A01 T01590059  RH  051%=      5-min Rain = 0
KDC1 131950Z 10006KT 16/06 A3007 RMK A01 T01590059  RH  051%=      5-min Rain = 0
KDC1 131951Z 10006KT 16/06 A3007 RMK A01 T01600059  RH  051%=      5-min Rain = 0
KDC1 131952Z 09007KT 16/06 A3007 RMK A01 T01610063  RH  052%=      5-min Rain = 0
KDC1 131953Z 08008KT 16/06 A3007 RMK A01 T01600062  RH  052%=      5-min Rain = 0
KDC1 131954Z 08007KT 16/06 A3007 RMK A01 T01600062  RH  052%=      5-min Rain = 0
KDC1 131955Z 07006KT 16/06 A3007 RMK A01 T01600063  RH  052%=      5-min Rain = 0
KDC1 131956Z 07007KT 16/06 A3007 RMK A01 T01610063  RH  052%=      5-min Rain = 0
KDC1 131957Z 09007KT 16/06 A3007 RMK A01 T01610062  RH  052%=      5-min Rain = 0
KDC1 131958Z 08007KT 16/06 A3007 RMK A01 T01610059  RH  051%=      5-min Rain = 0
KDC1 131959Z 10007KT 16/06 A3007 RMK A01 T01610057  RH  050%=      5-min Rain = 0
KDC1 132000Z 11007KT 16/06 A3007 RMK A01 T01610060  RH  051%=      5-min Rain = 0
KDC1 132001Z 09007KT 16/06 A3006 RMK A01 T01610063  RH  052%=      5-min Rain = 0
KDC1 132002Z 08008KT 16/07 A3006 RMK A01 T01620068  RH  054%=      5-min Rain = 0
KDC1 132003Z 08008KT 16/07 A3006 RMK A01 T01620066  RH  053%=      5-min Rain = 0
KDC1 132004Z 08008KT 16/07 A3006 RMK A01 T01630066  RH  053%=      5-min Rain = 0
KDC1 132005Z 08009KT 16/07 A3006 RMK A01 T01630068  RH  053%=      5-min Rain = 0
KDC1 132006Z 07008KT 16/07 A3006 RMK A01 T01620068  RH  054%=      5-min Rain = 0
KDC1 132007Z 08006KT 16/07 A3006 RMK A01 T01620071  RH  055%=      5-min Rain = 0
KDC1 132008Z 08008KT 16/07 A3006 RMK A01 T01630070  RH  054%=      5-min Rain = 0
KDC1 132009Z 08008KT 16/07 A3006 RMK A01 T01630069  RH  054%=      5-min Rain = 0
KDC1 132010Z 07007KT 16/07 A3006 RMK A01 T01620067  RH  053%=      5-min Rain = 0
KDC1 132011Z 07008KT 16/07 A3006 RMK A01 T01620067  RH  053%=      5-min Rain = 0
KDC1 132012Z 08006KT 16/07 A3007 RMK A01 T01630067  RH  053%=      5-min Rain = 0
KDC1 132013Z 07008KT 17/07 A3007 RMK A01 T01650066  RH  052%=      5-min Rain = 0
KDC1 132014Z 06009KT 17/07 A3007 RMK A01 T01650065  RH  051%=      5-min Rain = 0
KDC1 132015Z 06007KT 16/06 A3007 RMK A01 T01630063  RH  052%=      5-min Rain = 0
KDC1 132016Z 06008KT 16/07 A3007 RMK A01 T01640069  RH  054%=      5-min Rain = 0
KDC1 132017Z 07008KT 17/07 A3007 RMK A01 T01660067  RH  052%=      5-min Rain = 0
KDC1 132018Z 06008KT 17/07 A3007 RMK A01 T01660065  RH  051%=      5-min Rain = 0
KDC1 132019Z 07008KT 17/06 A3007 RMK A01 T01650063  RH  051%=      5-min Rain = 0
KDC1 132020Z 08008KT 17/06 A3006 RMK A01 T01650063  RH  051%=      5-min Rain = 0
KDC1 132021Z 08009KT 16/06 A3006 RMK A01 T01640060  RH  050%=      5-min Rain = 0
KDC1 132022Z 07007KT 16/06 A3006 RMK A01 T01630061  RH  051%=      5-min Rain = 0
KDC1 132023Z 07007KT 16/06 A3006 RMK A01 T01630062  RH  051%=      5-min Rain = 0
KDC1 132024Z 07008KT 16/06 A3006 RMK A01 T01630062  RH  051%=      5-min Rain = 0
KDC1 132025Z 07007KT 16/06 A3006 RMK A01 T01630060  RH  050%=      5-min Rain = 0
KDC1 132026Z 08008KT 16/06 A3006 RMK A01 T01640062  RH  051%=      5-min Rain = 0
KDC1 132027Z 08007KT 16/06 A3006 RMK A01 T01640058  RH  050%=      5-min Rain = 0
KDC1 132028Z 07007KT 16/06 A3006 RMK A01 T01640058  RH  050%=      5-min Rain = 0
KDC1 132029Z 07007KT 16/06 A3006 RMK A01 T01640059  RH  050%=      5-min Rain = 0
KDC1 132030Z 06006KT 17/06 A3006 RMK A01 T01650060  RH  050%=      5-min Rain = 0
KDC1 132031Z 06007KT 17/06 A3006 RMK A01 T01650063  RH  051%=      5-min Rain = 0
KDC1 132032Z 07006KT 17/06 A3006 RMK A01 T01660064  RH  051%=      5-min Rain = 0
KDC1 132033Z 06007KT 17/06 A3006 RMK A01 T01670061  RH  050%=      5-min Rain = 0
KDC1 132034Z 07006KT 17/06 A3006 RMK A01 T01670061  RH  049%=      5-min Rain = 0
KDC1 132035Z 07006KT 17/06 A3006 RMK A01 T01680058  RH  048%=      5-min Rain = 0
KDC1 132036Z 06007KT 17/06 A3006 RMK A01 T01680064  RH  050%=      5-min Rain = 0
KDC1 132037Z 06006KT 17/06 A3006 RMK A01 T01680064  RH  050%=      5-min Rain = 0
KDC1 132038Z 06007KT 17/06 A3006 RMK A01 T01670063  RH  050%=      5-min Rain = 0
KDC1 132039Z 07007KT 17/06 A3006 RMK A01 T01670061  RH  050%=      5-min Rain = 0
KDC1 132040Z 07007KT 17/06 A3006 RMK A01 T01660061  RH  050%=      5-min Rain = 0
KDC1 132041Z 06007KT 17/06 A3006 RMK A01 T01670062  RH  050%=      5-min Rain = 0
KDC1 132042Z 07007KT 17/06 A3006 RMK A01 T01670061  RH  049%=      5-min Rain = 0
KDC1 132043Z 08006KT 17/06 A3006 RMK A01 T01680063  RH  050%=      5-min Rain = 0
KDC1 132044Z 09007KT 17/06 A3006 RMK A01 T01690062  RH  049%=      5-min Rain = 0
KDC1 132045Z 09007KT 17/06 A3006 RMK A01 T01700061  RH  049%=      5-min Rain = 0
KDC1 132046Z 08007KT 17/06 A3006 RMK A01 T01710060  RH  048%=      5-min Rain = 0
KDC1 132047Z 08006KT 17/06 A3005 RMK A01 T01710058  RH  047%=      5-min Rain = 0
KDC1 132048Z 08006KT 17/06 A3005 RMK A01 T01700061  RH  048%=      5-min Rain = 0
KDC1 132049Z 08007KT 17/06 A3005 RMK A01 T01710062  RH  049%=      5-min Rain = 0
KDC1 132050Z 09008KT 17/06 A3005 RMK A01 T01720062  RH  048%=      5-min Rain = 0
KDC1 132051Z 09009KT 17/06 A3005 RMK A01 T01730059  RH  047%=      5-min Rain = 0
KDC1 132052Z 09009KT 17/06 A3005 RMK A01 T01740062  RH  048%=      5-min Rain = 0
KDC1 132053Z 09009KT 17/06 A3005 RMK A01 T01740064  RH  048%=      5-min Rain = 0
KDC1 132054Z 09008KT 17/06 A3005 RMK A01 T01740061  RH  047%=      5-min Rain = 0
KDC1 132055Z 11006KT 18/06 A3005 RMK A01 T01750064  RH  048%=      5-min Rain = 0
KDC1 132056Z 10007KT 18/06 A3005 RMK A01 T01760064  RH  048%=      5-min Rain = 0
KDC1 132057Z 09006KT 18/07 A3005 RMK A01 T01750066  RH  049%=      5-min Rain = 0
KDC1 132058Z 08005KT 18/06 A3005 RMK A01 T01760063  RH  047%=      5-min Rain = 0
KDC1 132059Z 08007KT 18/07 A3005 RMK A01 T01770065  RH  048%=      5-min Rain = 0
KDC1 132100Z 07007KT 18/06 A3005 RMK A01 T01770062  RH  047%=      5-min Rain = 0
KDC1 132101Z 09006KT 18/06 A3005 RMK A01 T01760061  RH  047%=      5-min Rain = 0
KDC1 132102Z 08006KT 18/06 A3005 RMK A01 T01760060  RH  046%=      5-min Rain = 0
KDC1 132103Z 07005KT 18/06 A3005 RMK A01 T01750059  RH  046%=      5-min Rain = 0
KDC1 132104Z 08005KT 18/06 A3005 RMK A01 T01750060  RH  047%=      5-min Rain = 0
KDC1 132105Z 08006KT 18/06 A3005 RMK A01 T01750063  RH  048%=      5-min Rain = 0
KDC1 132106Z 08006KT 18/06 A3005 RMK A01 T01770064  RH  047%=      5-min Rain = 0
KDC1 132107Z 10006KT 18/06 A3005 RMK A01 T01780062  RH  047%=      5-min Rain = 0
KDC1 132108Z 12007KT 18/07 A3005 RMK A01 T01790067  RH  048%=      5-min Rain = 0
KDC1 132109Z 11006KT 18/08 A3005 RMK A01 T01790075  RH  050%=      5-min Rain = 0
KDC1 132110Z 11007KT 18/07 A3005 RMK A01 T01800066  RH  047%=      5-min Rain = 0
KDC1 132111Z 10006KT 18/06 A3005 RMK A01 T01800063  RH  046%=      5-min Rain = 0
KDC1 132112Z 10006KT 18/06 A3005 RMK A01 T01800062  RH  046%=      5-min Rain = 0
KDC1 132113Z 10007KT 18/06 A3004 RMK A01 T01800058  RH  045%=      5-min Rain = 0
KDC1 132114Z 10006KT 18/06 A3004 RMK A01 T01800061  RH  046%=      5-min Rain = 0
KDC1 132115Z 11007KT 18/07 A3004 RMK A01 T01800065  RH  047%=      5-min Rain = 0
KDC1 132116Z 11007KT 18/07 A3004 RMK A01 T01810067  RH  047%=      5-min Rain = 0
KDC1 132117Z 09006KT 18/06 A3004 RMK A01 T01820062  RH  046%=      5-min Rain = 0
KDC1 132118Z 08006KT 18/05 A3004 RMK A01 T01820053  RH  043%=      5-min Rain = 0
KDC1 132119Z 09005KT 18/05 A3004 RMK A01 T01820052  RH  042%=      5-min Rain = 0
KDC1 132120Z 10005KT 18/05 A3004 RMK A01 T01830053  RH  043%=      5-min Rain = 0
KDC1 132121Z 09005KT 18/06 A3004 RMK A01 T01830058  RH  044%=      5-min Rain = 0
KDC1 132122Z 10004KT 18/05 A3004 RMK A01 T01840051  RH  041%=      5-min Rain = 0
KDC1 132123Z 10003KT 18/06 A3004 RMK A01 T01840056  RH  043%=      5-min Rain = 0
KDC1 132124Z 10004KT 19/05 A3004 RMK A01 T01850053  RH  042%=      5-min Rain = 0
KDC1 132125Z 10004KT 19/05 A3004 RMK A01 T01850050  RH  041%=      5-min Rain = 0
KDC1 132126Z 08005KT 19/05 A3004 RMK A01 T01850053  RH  042%=      5-min Rain = 0
KDC1 132127Z 09005KT 19/05 A3004 RMK A01 T01850054  RH  042%=      5-min Rain = 0
KDC1 132128Z 09005KT 19/05 A3004 RMK A01 T01850052  RH  041%=      5-min Rain = 0
KDC1 132129Z 10003KT 19/05 A3004 RMK A01 T01860053  RH  042%=      5-min Rain = 0
KDC1 132130Z 12002KT 19/06 A3004 RMK A01 T01870055  RH  042%=      5-min Rain = 0
KDC1 132131Z 07002KT 19/05 A3004 RMK A01 T01860051  RH  041%=      5-min Rain = 0
KDC1 132132Z 07003KT 19/05 A3004 RMK A01 T01860054  RH  042%=      5-min Rain = 0
KDC1 132133Z 06003KT 19/05 A3004 RMK A01 T01850054  RH  042%=      5-min Rain = 0
KDC1 132134Z 06004KT 19/05 A3004 RMK A01 T01850054  RH  042%=      5-min Rain = 0
KDC1 132135Z 04004KT 19/05 A3004 RMK A01 T01850054  RH  042%=      5-min Rain = 0
KDC1 132136Z 04005KT 18/05 A3004 RMK A01 T01840052  RH  042%=      5-min Rain = 0
KDC1 132137Z 07004KT 18/05 A3004 RMK A01 T01840049  RH  041%=      5-min Rain = 0
KDC1 132138Z 10002KT 18/05 A3004 RMK A01 T01830046  RH  040%=      5-min Rain = 0
KDC1 132139Z 24000KT 18/05 A3004 RMK A01 T01820045  RH  040%=      5-min Rain = 0
KDC1 132140Z 32001KT 18/05 A3004 RMK A01 T01830046  RH  040%=      5-min Rain = 0
KDC1 132141Z 35004KT 18/05 A3004 RMK A01 T01840049  RH  041%=      5-min Rain = 0
KDC1 132142Z 36003KT 18/05 A3004 RMK A01 T01840047  RH  041%=      5-min Rain = 0
KDC1 132143Z 02002KT 18/05 A3004 RMK A01 T01830046  RH  040%=      5-min Rain = 0
KDC1 132144Z 03002KT 18/05 A3004 RMK A01 T01840048  RH  041%=      5-min Rain = 0
KDC1 132145Z 36001KT 18/05 A3004 RMK A01 T01840048  RH  041%=      5-min Rain = 0
KDC1 132146Z 31000KT 18/05 A3004 RMK A01 T01840047  RH  041%=      5-min Rain = 0
KDC1 132147Z 25000KT 18/05 A3004 RMK A01 T01840047  RH  040%=      5-min Rain = 0
KDC1 132148Z 27001KT 18/05 A3004 RMK A01 T01840047  RH  040%=      5-min Rain = 0
KDC1 132149Z 28000KT 18/05 A3004 RMK A01 T01840048  RH  040%=      5-min Rain = 0
KDC1 132150Z 27000KT 18/05 A3004 RMK A01 T01840050  RH  041%=      5-min Rain = 0
KDC1 132151Z 16000KT 19/05 A3004 RMK A01 T01850051  RH  041%=      5-min Rain = 0
KDC1 132152Z 16000KT 19/05 A3004 RMK A01 T01860048  RH  040%=      5-min Rain = 0
KDC1 132153Z 18000KT 19/05 A3004 RMK A01 T01870052  RH  041%=      5-min Rain = 0
KDC1 132154Z 27000KT 19/05 A3004 RMK A01 T01870052  RH  041%=      5-min Rain = 0
KDC1 132155Z 01000KT 19/05 A3004 RMK A01 T01870053  RH  041%=      5-min Rain = 0
KDC1 132156Z 35002KT 19/05 A3004 RMK A01 T01870049  RH  040%=      5-min Rain = 0
KDC1 132157Z 03000KT 19/05 A3004 RMK A01 T01860048  RH  040%=      5-min Rain = 0
KDC1 132158Z 00000KT 19/05 A3004 RMK A01 T01850047  RH  040%=      5-min Rain = 0
KDC1 132159Z 00000KT 19/05 A3004 RMK A01 T01850048  RH  040%=      5-min Rain = 0
KDC1 132200Z 11000KT 19/05 A3004 RMK A01 T01860048  RH  040%=      5-min Rain = 0
KDC1 132201Z 11002KT 19/05 A3004 RMK A01 T01860048  RH  040%=      5-min Rain = 0
KDC1 132202Z 11002KT 19/05 A3004 RMK A01 T01860049  RH  040%=      5-min Rain = 0
KDC1 132203Z 13002KT 19/06 A3004 RMK A01 T01850057  RH  043%=      5-min Rain = 0
KDC1 132204Z 12001KT 18/06 A3004 RMK A01 T01840060  RH  044%=      5-min Rain = 0
KDC1 132205Z 03000KT 18/06 A3004 RMK A01 T01840061  RH  044%=      5-min Rain = 0
KDC1 132206Z 14000KT 18/06 A3004 RMK A01 T01840057  RH  043%=      5-min Rain = 0
KDC1 132207Z 09000KT 18/06 A3004 RMK A01 T01840056  RH  043%=      5-min Rain = 0
KDC1 132208Z 11001KT 19/06 A3004 RMK A01 T01850058  RH  043%=      5-min Rain = 0
KDC1 132209Z 13001KT 19/05 A3004 RMK A01 T01850052  RH  041%=      5-min Rain = 0
KDC1 132210Z 14001KT 19/06 A3004 RMK A01 T01850063  RH  045%=      5-min Rain = 0
KDC1 132211Z 00000KT 19/07 A3004 RMK A01 T01850069  RH  047%=      5-min Rain = 0
KDC1 132212Z 17001KT 18/06 A3004 RMK A01 T01840057  RH  043%=      5-min Rain = 0
KDC1 132213Z 15004KT 18/05 A3004 RMK A01 T01840052  RH  042%=      5-min Rain = 0
KDC1 132214Z 15006KT 18/05 A3004 RMK A01 T01830054  RH  043%=      5-min Rain = 0
KDC1 132215Z 12006KT 18/06 A3004 RMK A01 T01820055  RH  043%=      5-min Rain = 0
KDC1 132216Z 10005KT 18/05 A3004 RMK A01 T01820047  RH  041%=      5-min Rain = 0
KDC1 132217Z 04004KT 18/04 A3004 RMK A01 T01840044  RH  039%=      5-min Rain = 0
KDC1 132218Z 07003KT 19/05 A3004 RMK A01 T01860047  RH  040%=      5-min Rain = 0
KDC1 132219Z 18001KT 19/05 A3004 RMK A01 T01860053  RH  042%=      5-min Rain = 0
KDC1 132220Z 12002KT 19/06 A3004 RMK A01 T01860063  RH  044%=      5-min Rain = 0
KDC1 132221Z 11001KT 19/06 A3004 RMK A01 T01860057  RH  043%=      5-min Rain = 0
KDC1 132222Z 17001KT 19/05 A3004 RMK A01 T01870051  RH  041%=      5-min Rain = 0
KDC1 132223Z 14004KT 19/05 A3004 RMK A01 T01880054  RH  041%=      5-min Rain = 0
KDC1 132224Z 13006KT 19/05 A3003 RMK A01 T01880054  RH  041%=      5-min Rain = 0
KDC1 132225Z 12004KT 19/06 A3003 RMK A01 T01870056  RH  042%=      5-min Rain = 0
KDC1 132226Z 11002KT 19/06 A3004 RMK A01 T01870058  RH  043%=      5-min Rain = 0
KDC1 132227Z 08003KT 19/05 A3003 RMK A01 T01860053  RH  042%=      5-min Rain = 0
KDC1 132228Z 07006KT 19/06 A3003 RMK A01 T01870059  RH  043%=      5-min Rain = 0
KDC1 132229Z 09006KT 19/06 A3003 RMK A01 T01860056  RH  042%=      5-min Rain = 0
KDC1 132230Z 09004KT 19/05 A3003 RMK A01 T01850053  RH  042%=      5-min Rain = 0
KDC1 132231Z 09005KT 19/06 A3003 RMK A01 T01860058  RH  043%=      5-min Rain = 0
KDC1 132232Z 11005KT 19/06 A3003 RMK A01 T01850057  RH  043%=      5-min Rain = 0
KDC1 132233Z 12005KT 19/06 A3003 RMK A01 T01850061  RH  044%=      5-min Rain = 0
KDC1 132234Z 14003KT 19/06 A3003 RMK A01 T01850062  RH  044%=      5-min Rain = 0
KDC1 132235Z 15004KT 19/07 A3003 RMK A01 T01850065  RH  046%=      5-min Rain = 0
KDC1 132236Z 17006KT 19/05 A3003 RMK A01 T01850053  RH  042%=      5-min Rain = 0
KDC1 132237Z 17005KT 19/05 A3003 RMK A01 T01870048  RH  040%=      5-min Rain = 0
KDC1 132238Z 22005KT 19/04 A3003 RMK A01 T01890038  RH  037%=      5-min Rain = 0
KDC1 132239Z 28004KT 19/04 A3003 RMK A01 T01920038  RH  036%=      5-min Rain = 0
KDC1 132240Z 30004KT 19/04 A3003 RMK A01 T01930041  RH  037%=      5-min Rain = 0
KDC1 132241Z 29002KT 19/04 A3003 RMK A01 T01940044  RH  037%=      5-min Rain = 0
KDC1 132242Z 25002KT 19/05 A3003 RMK A01 T01930047  RH  038%=      5-min Rain = 0
KDC1 132243Z 25004KT 19/06 A3003 RMK A01 T01940055  RH  040%=      5-min Rain = 0
KDC1 132244Z 25005KT 19/05 A3003 RMK A01 T01940054  RH  040%=      5-min Rain = 0
KDC1 132245Z 23004KT 19/06 A3003 RMK A01 T01940056  RH  040%=      5-min Rain = 0
KDC1 132246Z 22003KT 19/05 A3003 RMK A01 T01940049  RH  038%=      5-min Rain = 0
KDC1 132247Z 25004KT 19/05 A3003 RMK A01 T01940052  RH  039%=      5-min Rain = 0
KDC1 132248Z 26004KT 19/06 A3003 RMK A01 T01940058  RH  041%=      5-min Rain = 0
KDC1 132249Z 26004KT 20/06 A3003 RMK A01 T01950059  RH  041%=      5-min Rain = 0
KDC1 132250Z 27006KT 19/06 A3003 RMK A01 T01940064  RH  043%=      5-min Rain = 0
KDC1 132251Z 27005KT 19/06 A3003 RMK A01 T01920062  RH  043%=      5-min Rain = 0
KDC1 132252Z 28004KT 19/06 A3003 RMK A01 T01910062  RH  043%=      5-min Rain = 0
KDC1 132253Z 28004KT 19/07 A3003 RMK A01 T01910067  RH  045%=      5-min Rain = 0
KDC1 132254Z 27004KT 19/07 A3003 RMK A01 T01900073  RH  046%=      5-min Rain = 0
KDC1 132255Z 27004KT 19/08 A3003 RMK A01 T01890075  RH  047%=      5-min Rain = 0
KDC1 132256Z 27004KT 19/08 A3003 RMK A01 T01880076  RH  048%=      5-min Rain = 0
KDC1 132257Z 26003KT 19/07 A3003 RMK A01 T01880070  RH  046%=      5-min Rain = 0
KDC1 132258Z 24003KT 19/07 A3003 RMK A01 T01880071  RH  047%=      5-min Rain = 0
KDC1 132259Z 24003KT 19/07 A3003 RMK A01 T01880073  RH  047%=      5-min Rain = 0
KDC1 132300Z 28003KT 19/07 A3003 RMK A01 T01890068  RH  045%=      5-min Rain = 0
KDC1 132301Z 29004KT 19/07 A3003 RMK A01 T01900070  RH  046%=      5-min Rain = 0
KDC1 132302Z 26004KT 19/07 A3003 RMK A01 T01890066  RH  045%=      5-min Rain = 0
KDC1 132303Z 28005KT 19/06 A3004 RMK A01 T01900056  RH  041%=      5-min Rain = 0
KDC1 132304Z 28008KT 19/06 A3004 RMK A01 T01920058  RH  042%=      5-min Rain = 0
KDC1 132305Z 28010KT 19/05 A3004 RMK A01 T01930049  RH  039%=      5-min Rain = 0
KDC1 132306Z 28010KT 20/05 A3004 RMK A01 T01950049  RH  038%=      5-min Rain = 0
KDC1 132307Z 28012KT 20/05 A3004 RMK A01 T01950046  RH  037%=      5-min Rain = 0
KDC1 132308Z 28011KT 20/04 A3003 RMK A01 T01950043  RH  037%=      5-min Rain = 0
KDC1 132309Z 28011KT 20/05 A3003 RMK A01 T01950046  RH  038%=      5-min Rain = 0
KDC1 132310Z 28011KT 19/05 A3003 RMK A01 T01940045  RH  037%=      5-min Rain = 0
KDC1 132311Z 27013KT 19/04 A3003 RMK A01 T01930044  RH  037%=      5-min Rain = 0
KDC1 132312Z 27011KT 19/04 A3003 RMK A01 T01920042  RH  037%=      5-min Rain = 0
KDC1 132313Z 27011KT 19/04 A3003 RMK A01 T01920042  RH  037%=      5-min Rain = 0
KDC1 132314Z 27011KT 19/04 A3003 RMK A01 T01910043  RH  038%=      5-min Rain = 0
KDC1 132315Z 27011KT 19/05 A3004 RMK A01 T01900045  RH  039%=      5-min Rain = 0
KDC1 132316Z 27012KT 19/04 A3004 RMK A01 T01890038  RH  037%=      5-min Rain = 0
KDC1 132317Z 27012KT 19/04 A3003 RMK A01 T01890035  RH  036%=      5-min Rain = 0
KDC1 132318Z 27011KT 19/04 A3004 RMK A01 T01890038  RH  037%=      5-min Rain = 0
KDC1 132319Z 27010KT 19/04 A3004 RMK A01 T01870041  RH  038%=      5-min Rain = 0
KDC1 132320Z 27010KT 19/04 A3004 RMK A01 T01850043  RH  039%=      5-min Rain = 0
KDC1 132321Z 27013KT 18/04 A3003 RMK A01 T01840037  RH  038%=      5-min Rain = 0
KDC1 132322Z 27013KT 18/04 A3004 RMK A01 T01840035  RH  037%=      5-min Rain = 0
KDC1 132323Z 27011KT 18/04 A3004 RMK A01 T01840037  RH  038%=      5-min Rain = 0
KDC1 132324Z 26011KT 18/04 A3003 RMK A01 T01820039  RH  039%=      5-min Rain = 0
KDC1 132325Z 27011KT 18/03 A3003 RMK A01 T01810034  RH  037%=      5-min Rain = 0
KDC1 132326Z 27012KT 18/03 A3003 RMK A01 T01820032  RH  037%=      5-min Rain = 0
KDC1 132327Z 27012KT 18/03 A3003 RMK A01 T01830029  RH  036%=      5-min Rain = 0
KDC1 132328Z 26011KT 18/03 A3003 RMK A01 T01830031  RH  036%=      5-min Rain = 0
KDC1 132329Z 26011KT 18/03 A3003 RMK A01 T01810033  RH  037%=      5-min Rain = 0
KDC1 132330Z 27012KT 18/03 A3003 RMK A01 T01800031  RH  037%=      5-min Rain = 0
KDC1 132331Z 27012KT 18/03 A3003 RMK A01 T01790031  RH  037%=      5-min Rain = 0
KDC1 132332Z 27012KT 18/03 A3003 RMK A01 T01790029  RH  037%=      5-min Rain = 0
KDC1 132333Z 27012KT 18/03 A3003 RMK A01 T01790028  RH  037%=      5-min Rain = 0
KDC1 132334Z 27011KT 18/03 A3003 RMK A01 T01780030  RH  037%=      5-min Rain = 0
KDC1 132335Z 26010KT 18/03 A3003 RMK A01 T01760032  RH  038%=      5-min Rain = 0
KDC1 132336Z 26010KT 17/03 A3003 RMK A01 T01740029  RH  038%=      5-min Rain = 0
KDC1 132337Z 26010KT 17/03 A3003 RMK A01 T01740029  RH  038%=      5-min Rain = 0
KDC1 132338Z 26010KT 17/03 A3003 RMK A01 T01730030  RH  038%=      5-min Rain = 0
KDC1 132339Z 26011KT 17/03 A3003 RMK A01 T01720031  RH  039%=      5-min Rain = 0
KDC1 132340Z 27011KT 17/03 A3003 RMK A01 T01710030  RH  039%=      5-min Rain = 0
KDC1 132341Z 27011KT 17/03 A3003 RMK A01 T01710030  RH  039%=      5-min Rain = 0
KDC1 132342Z 27011KT 17/03 A3003 RMK A01 T01700030  RH  039%=      5-min Rain = 0
KDC1 132343Z 27011KT 17/03 A3003 RMK A01 T01690031  RH  039%=      5-min Rain = 0
KDC1 132344Z 27011KT 17/03 A3003 RMK A01 T01680031  RH  040%=      5-min Rain = 0
KDC1 132345Z 27011KT 17/03 A3003 RMK A01 T01670032  RH  040%=      5-min Rain = 0
KDC1 132346Z 27011KT 17/03 A3003 RMK A01 T01660032  RH  041%=      5-min Rain = 0
KDC1 132347Z 27010KT 17/03 A3003 RMK A01 T01650032  RH  041%=      5-min Rain = 0
KDC1 132348Z 27010KT 17/03 A3003 RMK A01 T01650033  RH  041%=      5-min Rain = 0
KDC1 132349Z 27010KT 16/03 A3003 RMK A01 T01630033  RH  042%=      5-min Rain = 0
KDC1 132350Z 27010KT 16/03 A3003 RMK A01 T01620034  RH  042%=      5-min Rain = 0
KDC1 132351Z 27010KT 16/03 A3003 RMK A01 T01610033  RH  042%=      5-min Rain = 0
KDC1 132352Z 27010KT 16/03 A3003 RMK A01 T01600034  RH  043%=      5-min Rain = 0
KDC1 132353Z 27011KT 16/03 A3003 RMK A01 T01590034  RH  043%=      5-min Rain = 0
KDC1 132354Z 26010KT 16/03 A3003 RMK A01 T01580033  RH  043%=      5-min Rain = 0
KDC1 132355Z 27010KT 16/03 A3003 RMK A01 T01570034  RH  044%=      5-min Rain = 0
KDC1 132356Z 27010KT 16/03 A3003 RMK A01 T01560034  RH  044%=      5-min Rain = 0
KDC1 132357Z 27009KT 16/03 A3003 RMK A01 T01550034  RH  044%=      5-min Rain = 0
KDC1 132358Z 26010KT 16/03 A3003 RMK A01 T01550034  RH  044%=      5-min Rain = 0
KDC1 132359Z 26010KT 15/03 A3002 RMK A01 T01540033  RH  044%=      5-min Rain = 0
KDC1 140000Z 26010KT 15/03 A3002 RMK A01 T01540032  RH  044%=      5-min Rain = 0
KDC1 140001Z 26010KT 15/03 A3002 RMK A01 T01540031  RH  043%=      5-min Rain = 0
KDC1 140002Z 26010KT 16/03 A3002 RMK A01 T01550029  RH  043%=      5-min Rain = 0
KDC1 140003Z 26010KT 16/03 A3002 RMK A01 T01560028  RH  042%=      5-min Rain = 0
KDC1 140004Z 26010KT 16/03 A3002 RMK A01 T01570027  RH  042%=      5-min Rain = 0
KDC1 140005Z 26010KT 16/03 A3002 RMK A01 T01580027  RH  041%=      5-min Rain = 0
KDC1 140006Z 26010KT 16/03 A3002 RMK A01 T01580026  RH  041%=      5-min Rain = 0
KDC1 140007Z 26010KT 16/02 A3002 RMK A01 T01590024  RH  040%=      5-min Rain = 0
KDC1 140008Z 26010KT 16/02 A3002 RMK A01 T01600024  RH  040%=      5-min Rain = 0
KDC1 140009Z 25010KT 16/02 A3002 RMK A01 T01600024  RH  040%=      5-min Rain = 0
KDC1 140010Z 26009KT 16/02 A3002 RMK A01 T01600024  RH  040%=      5-min Rain = 0
KDC1 140011Z 26009KT 16/03 A3002 RMK A01 T01590026  RH  041%=      5-min Rain = 0
KDC1 140012Z 26009KT 16/03 A3002 RMK A01 T01570026  RH  041%=      5-min Rain = 0
KDC1 140013Z 25009KT 16/03 A3002 RMK A01 T01560027  RH  042%=      5-min Rain = 0
KDC1 140014Z 26008KT 15/03 A3002 RMK A01 T01540027  RH  042%=      5-min Rain = 0
KDC1 140015Z 25008KT 15/03 A3002 RMK A01 T01530028  RH  043%=      5-min Rain = 0
KDC1 140016Z 23007KT 15/03 A3002 RMK A01 T01510029  RH  044%=      5-min Rain = 0
KDC1 140017Z 22005KT 15/03 A3002 RMK A01 T01480032  RH  046%=      5-min Rain = 0
KDC1 140018Z 23005KT 14/03 A3002 RMK A01 T01440034  RH  047%=      5-min Rain = 0
KDC1 140019Z 22005KT 14/03 A3002 RMK A01 T01430034  RH  048%=      5-min Rain = 0
KDC1 140020Z 22005KT 14/03 A3002 RMK A01 T01420034  RH  048%=      5-min Rain = 0
KDC1 140021Z 21005KT 14/03 A3002 RMK A01 T01420032  RH  047%=      5-min Rain = 0
KDC1 140022Z 23005KT 14/03 A3002 RMK A01 T01440033  RH  047%=      5-min Rain = 0
KDC1 140023Z 21004KT 15/04 A3002 RMK A01 T01450035  RH  047%=      5-min Rain = 0
KDC1 140024Z 22004KT 15/04 A3002 RMK A01 T01450036  RH  048%=      5-min Rain = 0
KDC1 140025Z 22005KT 15/04 A3002 RMK A01 T01450036  RH  048%=      5-min Rain = 0
KDC1 140026Z 22006KT 15/04 A3002 RMK A01 T01450036  RH  048%=      5-min Rain = 0
KDC1 140027Z 22006KT 15/04 A3002 RMK A01 T01450036  RH  048%=      5-min Rain = 0
KDC1 140028Z 22004KT 15/04 A3002 RMK A01 T01450037  RH  048%=      5-min Rain = 0
KDC1 140029Z 22004KT 14/04 A3002 RMK A01 T01440039  RH  049%=      5-min Rain = 0
KDC1 140030Z 21003KT 14/04 A3003 RMK A01 T01430039  RH  050%=      5-min Rain = 0
KDC1 140031Z 22004KT 14/04 A3003 RMK A01 T01410038  RH  050%=      5-min Rain = 0
KDC1 140032Z 23006KT 14/04 A3002 RMK A01 T01410038  RH  050%=      5-min Rain = 0
KDC1 140033Z 22006KT 14/04 A3002 RMK A01 T01410035  RH  049%=      5-min Rain = 0
KDC1 140034Z 22005KT 14/04 A3002 RMK A01 T01430036  RH  049%=      5-min Rain = 0
KDC1 140035Z 21003KT 14/04 A3002 RMK A01 T01440038  RH  049%=      5-min Rain = 0
KDC1 140036Z 21004KT 14/04 A3002 RMK A01 T01430037  RH  049%=      5-min Rain = 0
KDC1 140037Z 22005KT 14/04 A3002 RMK A01 T01430037  RH  049%=      5-min Rain = 0
KDC1 140038Z 22004KT 14/04 A3002 RMK A01 T01420037  RH  049%=      5-min Rain = 0
KDC1 140039Z 23005KT 14/04 A3002 RMK A01 T01420037  RH  049%=      5-min Rain = 0
KDC1 140040Z 23006KT 14/04 A3003 RMK A01 T01420037  RH  049%=      5-min Rain = 0
KDC1 140041Z 22006KT 14/04 A3003 RMK A01 T01420037  RH  049%=      5-min Rain = 0
KDC1 140042Z 22006KT 14/04 A3003 RMK A01 T01410037  RH  049%=      5-min Rain = 0
KDC1 140043Z 23006KT 14/04 A3003 RMK A01 T01400037  RH  050%=      5-min Rain = 0
KDC1 140044Z 23005KT 14/04 A3003 RMK A01 T01390037  RH  050%=      5-min Rain = 0
KDC1 140045Z 24006KT 14/04 A3003 RMK A01 T01380037  RH  051%=      5-min Rain = 0
KDC1 140046Z 23005KT 14/04 A3003 RMK A01 T01370038  RH  051%=      5-min Rain = 0
KDC1 140047Z 23005KT 14/04 A3003 RMK A01 T01360038  RH  052%=      5-min Rain = 0
KDC1 140048Z 23005KT 13/04 A3003 RMK A01 T01340038  RH  052%=      5-min Rain = 0
KDC1 140049Z 23006KT 13/04 A3003 RMK A01 T01320038  RH  053%=      5-min Rain = 0
KDC1 140050Z 22005KT 13/04 A3003 RMK A01 T01310039  RH  054%=      5-min Rain = 0
KDC1 140051Z 22004KT 13/04 A3003 RMK A01 T01290039  RH  054%=      5-min Rain = 0
KDC1 140052Z 22005KT 13/04 A3003 RMK A01 T01270039  RH  055%=      5-min Rain = 0
KDC1 140053Z 22005KT 13/04 A3003 RMK A01 T01260040  RH  056%=      5-min Rain = 0
KDC1 140054Z 22005KT 13/04 A3003 RMK A01 T01250040  RH  056%=      5-min Rain = 0
KDC1 140055Z 22005KT 13/04 A3003 RMK A01 T01250041  RH  056%=      5-min Rain = 0
KDC1 140056Z 22004KT 12/04 A3003 RMK A01 T01240041  RH  057%=      5-min Rain = 0
KDC1 140057Z 22002KT 12/04 A3003 RMK A01 T01240042  RH  057%=      5-min Rain = 0
KDC1 140058Z 22004KT 12/04 A3003 RMK A01 T01230042  RH  058%=      5-min Rain = 0
KDC1 140059Z 21003KT 12/04 A3003 RMK A01 T01220042  RH  058%=      5-min Rain = 0
KDC1 140100Z 21004KT 12/04 A3002 RMK A01 T01210042  RH  058%=      5-min Rain = 0
KDC1 140101Z 22004KT 12/04 A3002 RMK A01 T01210042  RH  058%=      5-min Rain = 0
KDC1 140102Z 21005KT 12/04 A3002 RMK A01 T01210042  RH  058%=      5-min Rain = 0
KDC1 140103Z 21005KT 12/04 A3002 RMK A01 T01210042  RH  059%=      5-min Rain = 0
KDC1 140104Z 21005KT 12/04 A3002 RMK A01 T01210043  RH  059%=      5-min Rain = 0
KDC1 140105Z 21004KT 12/04 A3002 RMK A01 T01210043  RH  059%=      5-min Rain = 0
KDC1 140106Z 21005KT 12/04 A3002 RMK A01 T01210044  RH  059%=      5-min Rain = 0
KDC1 140107Z 21004KT 12/04 A3002 RMK A01 T01210044  RH  059%=      5-min Rain = 0
KDC1 140108Z 22004KT 12/04 A3002 RMK A01 T01210044  RH  059%=      5-min Rain = 0
KDC1 140109Z 23004KT 12/04 A3002 RMK A01 T01210044  RH  059%=      5-min Rain = 0
KDC1 140110Z 23003KT 12/04 A3002 RMK A01 T01210044  RH  059%=      5-min Rain = 0
KDC1 140111Z 22004KT 12/04 A3002 RMK A01 T01210044  RH  059%=      5-min Rain = 0
KDC1 140112Z 22004KT 12/05 A3003 RMK A01 T01210045  RH  060%=      5-min Rain = 0
KDC1 140113Z 23005KT 12/05 A3003 RMK A01 T01200045  RH  060%=      5-min Rain = 0
KDC1 140114Z 23004KT 12/05 A3003 RMK A01 T01190045  RH  061%=      5-min Rain = 0
KDC1 140115Z 23004KT 12/05 A3003 RMK A01 T01170046  RH  062%=      5-min Rain = 0
KDC1 140116Z 23005KT 12/05 A3003 RMK A01 T01150046  RH  063%=      5-min Rain = 0
KDC1 140117Z 24005KT 11/05 A3003 RMK A01 T01130046  RH  064%=      5-min Rain = 0
KDC1 140118Z 24006KT 11/05 A3003 RMK A01 T01120047  RH  064%=      5-min Rain = 0
KDC1 140119Z 24006KT 11/05 A3003 RMK A01 T01110047  RH  065%=      5-min Rain = 0
KDC1 140120Z 25006KT 11/05 A3003 RMK A01 T01100047  RH  065%=      5-min Rain = 0
KDC1 140121Z 25006KT 11/05 A3003 RMK A01 T01110046  RH  065%=      5-min Rain = 0
KDC1 140122Z 25007KT 11/05 A3003 RMK A01 T01120046  RH  064%=      5-min Rain = 0
KDC1 140123Z 26007KT 11/05 A3003 RMK A01 T01120047  RH  064%=      5-min Rain = 0
KDC1 140124Z 25007KT 11/05 A3003 RMK A01 T01120047  RH  064%=      5-min Rain = 0
KDC1 140125Z 25008KT 11/05 A3003 RMK A01 T01140047  RH  063%=      5-min Rain = 0
KDC1 140126Z 25008KT 12/05 A3003 RMK A01 T01170046  RH  062%=      5-min Rain = 0
KDC1 140127Z 25008KT 12/05 A3003 RMK A01 T01180046  RH  061%=      5-min Rain = 0
KDC1 140128Z 25008KT 12/05 A3003 RMK A01 T01200046  RH  060%=      5-min Rain = 0
KDC1 140129Z 25008KT 12/05 A3003 RMK A01 T01210046  RH  060%=      5-min Rain = 0
KDC1 140130Z 24007KT 12/05 A3003 RMK A01 T01210046  RH  060%=      5-min Rain = 0
KDC1 140131Z 24009KT 12/05 A3003 RMK A01 T01200047  RH  061%=      5-min Rain = 0
KDC1 140132Z 25008KT 12/05 A3003 RMK A01 T01190047  RH  061%=      5-min Rain = 0
KDC1 140133Z 25008KT 12/05 A3003 RMK A01 T01180046  RH  061%=      5-min Rain = 0
KDC1 140134Z 25008KT 12/05 A3003 RMK A01 T01180046  RH  061%=      5-min Rain = 0
KDC1 140135Z 25007KT 12/05 A3003 RMK A01 T01180046  RH  061%=      5-min Rain = 0
KDC1 140136Z 25008KT 12/05 A3003 RMK A01 T01180047  RH  062%=      5-min Rain = 0
KDC1 140137Z 25008KT 12/05 A3003 RMK A01 T01180046  RH  061%=      5-min Rain = 0
KDC1 140138Z 25008KT 12/05 A3003 RMK A01 T01190046  RH  061%=      5-min Rain = 0
KDC1 140139Z 25008KT 12/05 A3003 RMK A01 T01190046  RH  061%=      5-min Rain = 0
KDC1 140140Z 25008KT 12/05 A3003 RMK A01 T01200046  RH  061%=      5-min Rain = 0
KDC1 140141Z 26008KT 12/05 A3003 RMK A01 T01200046  RH  060%=      5-min Rain = 0
KDC1 140142Z 25008KT 12/05 A3003 RMK A01 T01200047  RH  061%=      5-min Rain = 0
KDC1 140143Z 26008KT 12/05 A3003 RMK A01 T01180047  RH  062%=      5-min Rain = 0
KDC1 140144Z 26007KT 12/05 A3003 RMK A01 T01170047  RH  062%=      5-min Rain = 0
KDC1 140145Z 26008KT 12/05 A3003 RMK A01 T01160048  RH  063%=      5-min Rain = 0
KDC1 140146Z 26007KT 11/05 A3003 RMK A01 T01140047  RH  064%=      5-min Rain = 0
KDC1 140147Z 26008KT 11/05 A3003 RMK A01 T01130047  RH  064%=      5-min Rain = 0
KDC1 140148Z 26007KT 11/05 A3003 RMK A01 T01120047  RH  064%=      5-min Rain = 0
KDC1 140149Z 26007KT 11/05 A3003 RMK A01 T01120047  RH  064%=      5-min Rain = 0
KDC1 140150Z 26007KT 11/05 A3003 RMK A01 T01130047  RH  064%=      5-min Rain = 0
KDC1 140151Z 27006KT 11/05 A3003 RMK A01 T01110048  RH  065%=      5-min Rain = 0
KDC1 140152Z 27006KT 11/05 A3003 RMK A01 T01080047  RH  066%=      5-min Rain = 0
KDC1 140153Z 27006KT 10/05 A3003 RMK A01 T01040047  RH  068%=      5-min Rain = 0
KDC1 140154Z 27006KT 10/05 A3003 RMK A01 T01000047  RH  069%=      5-min Rain = 0
KDC1 140155Z 27006KT 10/05 A3003 RMK A01 T00990047  RH  070%=      5-min Rain = 0
KDC1 140156Z 28006KT 10/05 A3003 RMK A01 T00990047  RH  070%=      5-min Rain = 0
KDC1 140157Z 27007KT 10/05 A3003 RMK A01 T00980047  RH  070%=      5-min Rain = 0
KDC1 140158Z 27007KT 10/05 A3003 RMK A01 T00980047  RH  071%=      5-min Rain = 0
KDC1 140159Z 27007KT 10/05 A3003 RMK A01 T00970047  RH  071%=      5-min Rain = 0
KDC1 140200Z 28006KT 10/05 A3003 RMK A01 T00970047  RH  071%=      5-min Rain = 0
KDC1 140201Z 27007KT 10/05 A3003 RMK A01 T00970046  RH  071%=      5-min Rain = 0
KDC1 140202Z 27007KT 10/05 A3003 RMK A01 T00970047  RH  071%=      5-min Rain = 0
KDC1 140203Z 27007KT 10/05 A3003 RMK A01 T00970047  RH  071%=      5-min Rain = 0
KDC1 140204Z 27006KT 10/05 A3003 RMK A01 T00960046  RH  071%=      5-min Rain = 0
KDC1 140205Z 27006KT 10/05 A3003 RMK A01 T00960046  RH  071%=      5-min Rain = 0
KDC1 140206Z 27006KT 10/05 A3003 RMK A01 T00950047  RH  072%=      5-min Rain = 0
KDC1 140207Z 28006KT 09/05 A3003 RMK A01 T00940046  RH  072%=      5-min Rain = 0
KDC1 140208Z 28006KT 09/05 A3003 RMK A01 T00930046  RH  072%=      5-min Rain = 0
KDC1 140209Z 28006KT 09/05 A3003 RMK A01 T00910045  RH  073%=      5-min Rain = 0
KDC1 140210Z 28006KT 09/05 A3003 RMK A01 T00900045  RH  074%=      5-min Rain = 0
KDC1 140211Z 28006KT 09/05 A3003 RMK A01 T00890045  RH  074%=      5-min Rain = 0
KDC1 140212Z 29006KT 09/05 A3003 RMK A01 T00880045  RH  074%=      5-min Rain = 0
KDC1 140213Z 29006KT 09/04 A3003 RMK A01 T00880044  RH  074%=      5-min Rain = 0
KDC1 140214Z 29006KT 09/04 A3003 RMK A01 T00870044  RH  075%=      5-min Rain = 0
KDC1 140215Z 29006KT 09/04 A3003 RMK A01 T00860044  RH  075%=      5-min Rain = 0
KDC1 140216Z 29006KT 08/04 A3003 RMK A01 T00840044  RH  076%=      5-min Rain = 0
KDC1 140217Z 29006KT 08/05 A3003 RMK A01 T00840045  RH  076%=      5-min Rain = 0
KDC1 140218Z 29007KT 08/05 A3003 RMK A01 T00830045  RH  077%=      5-min Rain = 0
KDC1 140219Z 29007KT 08/04 A3003 RMK A01 T00820044  RH  077%=      5-min Rain = 0
KDC1 140220Z 29007KT 08/04 A3004 RMK A01 T00820044  RH  077%=      5-min Rain = 0
KDC1 140221Z 29008KT 08/04 A3004 RMK A01 T00820044  RH  077%=      5-min Rain = 0
KDC1 140222Z 29007KT 08/04 A3004 RMK A01 T00820044  RH  077%=      5-min Rain = 0
KDC1 140223Z 29007KT 08/04 A3004 RMK A01 T00830044  RH  076%=      5-min Rain = 0
KDC1 140224Z 29008KT 08/04 A3003 RMK A01 T00840044  RH  076%=      5-min Rain = 0
KDC1 140225Z 29007KT 09/04 A3003 RMK A01 T00850044  RH  076%=      5-min Rain = 0
KDC1 140226Z 29007KT 09/04 A3003 RMK A01 T00850044  RH  076%=      5-min Rain = 0
KDC1 140227Z 30007KT 09/04 A3003 RMK A01 T00850044  RH  075%=      5-min Rain = 0
KDC1 140228Z 30007KT 09/04 A3004 RMK A01 T00850043  RH  075%=      5-min Rain = 0
KDC1 140229Z 30007KT 09/04 A3004 RMK A01 T00850043  RH  075%=      5-min Rain = 0
KDC1 140230Z 30007KT 09/04 A3004 RMK A01 T00870043  RH  074%=      5-min Rain = 0
KDC1 140231Z 29007KT 09/04 A3004 RMK A01 T00880043  RH  073%=      5-min Rain = 0
KDC1 140232Z 30007KT 09/04 A3004 RMK A01 T00890042  RH  072%=      5-min Rain = 0
KDC1 140233Z 30007KT 09/04 A3004 RMK A01 T00910043  RH  072%=      5-min Rain = 0
KDC1 140234Z 31007KT 09/04 A3004 RMK A01 T00910042  RH  072%=      5-min Rain = 0
KDC1 140235Z 31007KT 09/04 A3004 RMK A01 T00910042  RH  071%=      5-min Rain = 0
KDC1 140236Z 31008KT 09/04 A3004 RMK A01 T00910042  RH  071%=      5-min Rain = 0
KDC1 140237Z 31008KT 09/04 A3004 RMK A01 T00930042  RH  070%=      5-min Rain = 0
KDC1 140238Z 32007KT 10/04 A3004 RMK A01 T00950042  RH  069%=      5-min Rain = 0
KDC1 140239Z 34006KT 10/04 A3004 RMK A01 T00980042  RH  068%=      5-min Rain = 0
KDC1 140240Z 01006KT 10/04 A3004 RMK A01 T00990043  RH  068%=      5-min Rain = 0
KDC1 140241Z 02008KT 10/04 A3005 RMK A01 T00970042  RH  069%=      5-min Rain = 0
KDC1 140242Z 02008KT 09/04 A3005 RMK A01 T00940042  RH  070%=      5-min Rain = 0
KDC1 140243Z 02007KT 09/04 A3005 RMK A01 T00930042  RH  070%=      5-min Rain = 0
KDC1 140244Z 02006KT 10/04 A3005 RMK A01 T00950042  RH  070%=      5-min Rain = 0
KDC1 140245Z 02005KT 10/04 A3005 RMK A01 T01000043  RH  068%=      5-min Rain = 0
KDC1 140246Z 02006KT 10/04 A3005 RMK A01 T01030043  RH  066%=      5-min Rain = 0
KDC1 140247Z 03006KT 11/04 A3005 RMK A01 T01050042  RH  065%=      5-min Rain = 0
KDC1 140248Z 04006KT 11/04 A3005 RMK A01 T01070042  RH  064%=      5-min Rain = 0
KDC1 140249Z 04006KT 11/04 A3005 RMK A01 T01070042  RH  064%=      5-min Rain = 0
KDC1 140250Z 04006KT 11/04 A3005 RMK A01 T01070042  RH  064%=      5-min Rain = 0
KDC1 140251Z 04006KT 11/04 A3005 RMK A01 T01060042  RH  065%=      5-min Rain = 0
KDC1 140252Z 04006KT 11/04 A3005 RMK A01 T01060042  RH  065%=      5-min Rain = 0
KDC1 140253Z 04006KT 11/04 A3005 RMK A01 T01050041  RH  065%=      5-min Rain = 0
KDC1 140254Z 04006KT 10/04 A3005 RMK A01 T01030042  RH  066%=      5-min Rain = 0
KDC1 140255Z 03006KT 10/04 A3005 RMK A01 T01020042  RH  066%=      5-min Rain = 0
KDC1 140256Z 04005KT 10/04 A3005 RMK A01 T01010042  RH  067%=      5-min Rain = 0
KDC1 140257Z 05005KT 10/04 A3005 RMK A01 T01000042  RH  067%=      5-min Rain = 0
KDC1 140258Z 07005KT 10/04 A3005 RMK A01 T00990042  RH  068%=      5-min Rain = 0
KDC1 140259Z 09004KT 10/04 A3005 RMK A01 T00970042  RH  069%=      5-min Rain = 0
KDC1 140300Z 08006KT 10/04 A3005 RMK A01 T00950042  RH  070%=      5-min Rain = 0
KDC1 140301Z 08007KT 09/04 A3005 RMK A01 T00930043  RH  071%=      5-min Rain = 0
KDC1 140302Z 08007KT 09/04 A3005 RMK A01 T00920044  RH  072%=      5-min Rain = 0
KDC1 140303Z 07007KT 09/04 A3005 RMK A01 T00920044  RH  072%=      5-min Rain = 0
KDC1 140304Z 07007KT 09/04 A3005 RMK A01 T00920043  RH  071%=      5-min Rain = 0
KDC1 140305Z 07007KT 09/04 A3005 RMK A01 T00930043  RH  071%=      5-min Rain = 0
KDC1 140306Z 07007KT 09/04 A3005 RMK A01 T00930043  RH  071%=      5-min Rain = 0
KDC1 140307Z 07007KT 09/04 A3005 RMK A01 T00930043  RH  071%=      5-min Rain = 0
KDC1 140308Z 07007KT 09/04 A3005 RMK A01 T00930042  RH  070%=      5-min Rain = 0
KDC1 140309Z 07007KT 09/04 A3005 RMK A01 T00940042  RH  070%=      5-min Rain = 0
KDC1 140310Z 08007KT 09/04 A3005 RMK A01 T00940043  RH  070%=      5-min Rain = 0
KDC1 140311Z 08007KT 09/04 A3005 RMK A01 T00940044  RH  071%=      5-min Rain = 0
KDC1 140312Z 08008KT 09/04 A3005 RMK A01 T00920044  RH  072%=      5-min Rain = 0
KDC1 140313Z 07007KT 09/04 A3005 RMK A01 T00920044  RH  072%=      5-min Rain = 0
KDC1 140314Z 07008KT 09/04 A3005 RMK A01 T00910044  RH  072%=      5-min Rain = 0
KDC1 140315Z 07007KT 09/04 A3005 RMK A01 T00910044  RH  072%=      5-min Rain = 0
KDC1 140316Z 07006KT 09/04 A3005 RMK A01 T00910044  RH  072%=      5-min Rain = 0
KDC1 140317Z 07005KT 09/04 A3005 RMK A01 T00910044  RH  072%=      5-min Rain = 0
KDC1 140318Z 07005KT 09/04 A3005 RMK A01 T00910044  RH  072%=      5-min Rain = 0
KDC1 140319Z 08005KT 09/04 A3005 RMK A01 T00900044  RH  073%=      5-min Rain = 0
KDC1 140320Z 09005KT 09/04 A3005 RMK A01 T00890044  RH  073%=      5-min Rain = 0
KDC1 140321Z 09004KT 09/04 A3005 RMK A01 T00880044  RH  074%=      5-min Rain = 0
KDC1 140322Z 09004KT 09/04 A3005 RMK A01 T00880044  RH  074%=      5-min Rain = 0
KDC1 140323Z 08004KT 09/04 A3005 RMK A01 T00870044  RH  075%=      5-min Rain = 0
KDC1 140324Z 09004KT 09/04 A3005 RMK A01 T00860044  RH  075%=      5-min Rain = 0
KDC1 140325Z 08003KT 09/04 A3005 RMK A01 T00860044  RH  075%=      5-min Rain = 0
KDC1 140326Z 07002KT 09/04 A3005 RMK A01 T00850044  RH  075%=      5-min Rain = 0
KDC1 140327Z 06003KT 09/04 A3005 RMK A01 T00850044  RH  075%=      5-min Rain = 0
KDC1 140328Z 06003KT 09/04 A3005 RMK A01 T00850044  RH  075%=      5-min Rain = 0
KDC1 140329Z 06004KT 08/04 A3005 RMK A01 T00840044  RH  075%=      5-min Rain = 0
KDC1 140330Z 06004KT 08/04 A3005 RMK A01 T00840044  RH  076%=      5-min Rain = 0
KDC1 140331Z 06003KT 08/04 A3005 RMK A01 T00830043  RH  076%=      5-min Rain = 0
KDC1 140332Z 06004KT 08/04 A3005 RMK A01 T00830043  RH  076%=      5-min Rain = 0
KDC1 140333Z 06004KT 08/04 A3005 RMK A01 T00820043  RH  076%=      5-min Rain = 0
KDC1 140334Z 07004KT 08/04 A3005 RMK A01 T00810043  RH  077%=      5-min Rain = 0
KDC1 140335Z 08004KT 08/04 A3005 RMK A01 T00810043  RH  077%=      5-min Rain = 0
KDC1 140336Z 08004KT 08/04 A3005 RMK A01 T00800042  RH  077%=      5-min Rain = 0
KDC1 140337Z 08003KT 08/04 A3005 RMK A01 T00810042  RH  077%=      5-min Rain = 0
KDC1 140338Z 08003KT 08/04 A3005 RMK A01 T00810042  RH  076%=      5-min Rain = 0
KDC1 140339Z 09004KT 08/04 A3005 RMK A01 T00810042  RH  076%=      5-min Rain = 0
KDC1 140340Z 09004KT 08/04 A3005 RMK A01 T00820042  RH  076%=      5-min Rain = 0
KDC1 140341Z 09004KT 08/04 A3005 RMK A01 T00820042  RH  076%=      5-min Rain = 0
KDC1 140342Z 08003KT 08/04 A3005 RMK A01 T00830042  RH  075%=      5-min Rain = 0
KDC1 140343Z 09003KT 08/04 A3005 RMK A01 T00830041  RH  075%=      5-min Rain = 0
KDC1 140344Z 10003KT 08/04 A3005 RMK A01 T00830041  RH  075%=      5-min Rain = 0
KDC1 140345Z 10004KT 08/04 A3005 RMK A01 T00830042  RH  075%=      5-min Rain = 0
KDC1 140346Z 10004KT 08/04 A3005 RMK A01 T00830042  RH  075%=      5-min Rain = 0
KDC1 140347Z 11004KT 08/04 A3004 RMK A01 T00830041  RH  075%=      5-min Rain = 0
KDC1 140348Z 10005KT 08/04 A3004 RMK A01 T00830041  RH  075%=      5-min Rain = 0
KDC1 140349Z 10005KT 08/04 A3004 RMK A01 T00820041  RH  075%=      5-min Rain = 0
KDC1 140350Z 11005KT 08/04 A3004 RMK A01 T00810040  RH  076%=      5-min Rain = 0
KDC1 140351Z 11005KT 08/04 A3004 RMK A01 T00800040  RH  076%=      5-min Rain = 0
KDC1 140352Z 11005KT 08/04 A3004 RMK A01 T00800041  RH  076%=      5-min Rain = 0
KDC1 140353Z 11005KT 08/04 A3004 RMK A01 T00790041  RH  077%=      5-min Rain = 0
KDC1 140354Z 11004KT 08/04 A3004 RMK A01 T00790041  RH  077%=      5-min Rain = 0
KDC1 140355Z 10003KT 08/04 A3004 RMK A01 T00790041  RH  077%=      5-min Rain = 0
KDC1 140356Z 06001KT 08/04 A3004 RMK A01 T00800041  RH  077%=      5-min Rain = 0
KDC1 140357Z 10002KT 08/04 A3004 RMK A01 T00780041  RH  077%=      5-min Rain = 0
KDC1 140358Z 12003KT 08/04 A3004 RMK A01 T00770041  RH  078%=      5-min Rain = 0
KDC1 140359Z 12003KT 08/04 A3004 RMK A01 T00770041  RH  078%=      5-min Rain = 0
KDC1 140400Z 12003KT 08/04 A3004 RMK A01 T00770041  RH  078%=      5-min Rain = 0
KDC1 140401Z 13003KT 08/04 A3004 RMK A01 T00760041  RH  078%=      5-min Rain = 0
KDC1 140402Z 13003KT 08/04 A3004 RMK A01 T00770041  RH  078%=      5-min Rain = 0
KDC1 140403Z 14003KT 08/04 A3004 RMK A01 T00780042  RH  078%=      5-min Rain = 0
KDC1 140404Z 13003KT 08/04 A3004 RMK A01 T00790042  RH  077%=      5-min Rain = 0
KDC1 140405Z 14002KT 08/04 A3004 RMK A01 T00810042  RH  077%=      5-min Rain = 0
KDC1 140406Z 14002KT 08/04 A3004 RMK A01 T00810041  RH  076%=      5-min Rain = 0
KDC1 140407Z 15002KT 08/04 A3004 RMK A01 T00810041  RH  076%=      5-min Rain = 0
KDC1 140408Z 16002KT 08/04 A3004 RMK A01 T00810040  RH  076%=      5-min Rain = 0
KDC1 140409Z 15002KT 08/04 A3004 RMK A01 T00800040  RH  076%=      5-min Rain = 0
KDC1 140410Z 15002KT 08/04 A3004 RMK A01 T00790039  RH  076%=      5-min Rain = 0
KDC1 140411Z 14003KT 08/04 A3004 RMK A01 T00760038  RH  077%=      5-min Rain = 0
KDC1 140412Z 15003KT 07/04 A3004 RMK A01 T00740039  RH  078%=      5-min Rain = 0
KDC1 140413Z 15002KT 07/04 A3004 RMK A01 T00740039  RH  078%=      5-min Rain = 0
KDC1 140414Z 16003KT 07/04 A3004 RMK A01 T00740039  RH  078%=      5-min Rain = 0
KDC1 140415Z 16002KT 07/04 A3004 RMK A01 T00740039  RH  078%=      5-min Rain = 0
KDC1 140416Z 16002KT 07/04 A3004 RMK A01 T00740039  RH  078%=      5-min Rain = 0
KDC1 140417Z 15003KT 08/04 A3004 RMK A01 T00750039  RH  078%=      5-min Rain = 0
KDC1 140418Z 16003KT 08/04 A3003 RMK A01 T00760039  RH  078%=      5-min Rain = 0
KDC1 140419Z 17003KT 08/04 A3004 RMK A01 T00770040  RH  077%=      5-min Rain = 0
KDC1 140420Z 17003KT 08/04 A3004 RMK A01 T00780040  RH  077%=      5-min Rain = 0
KDC1 140421Z 18002KT 08/04 A3004 RMK A01 T00790039  RH  076%=      5-min Rain = 0
KDC1 140422Z 19001KT 08/04 A3004 RMK A01 T00790039  RH  076%=      5-min Rain = 0
KDC1 140423Z 21001KT 08/04 A3004 RMK A01 T00800039  RH  076%=      5-min Rain = 0
KDC1 140424Z 24001KT 08/04 A3004 RMK A01 T00790038  RH  076%=      5-min Rain = 0
KDC1 140425Z 25001KT 07/03 A3004 RMK A01 T00720032  RH  076%=      5-min Rain = 0
KDC1 140426Z 24001KT 06/03 A3004 RMK A01 T00630027  RH  078%=      5-min Rain = 0
KDC1 140427Z 22001KT 06/03 A3004 RMK A01 T00580027  RH  081%=      5-min Rain = 0
KDC1 140428Z 21002KT 06/03 A3004 RMK A01 T00560030  RH  083%=      5-min Rain = 0
KDC1 140429Z 24003KT 06/03 A3005 RMK A01 T00560031  RH  084%=      5-min Rain = 0
KDC1 140430Z 25004KT 06/03 A3005 RMK A01 T00560030  RH  083%=      5-min Rain = 0
KDC1 140431Z 24003KT 05/03 A3005 RMK A01 T00530028  RH  084%=      5-min Rain = 0
KDC1 140432Z 23002KT 05/03 A3005 RMK A01 T00510028  RH  085%=      5-min Rain = 0
KDC1 140433Z 21002KT 05/03 A3004 RMK A01 T00500028  RH  086%=      5-min Rain = 0
KDC1 140434Z 19002KT 05/03 A3004 RMK A01 T00490028  RH  086%=      5-min Rain = 0
KDC1 140435Z 17002KT 05/03 A3004 RMK A01 T00490029  RH  087%=      5-min Rain = 0
KDC1 140436Z 16002KT 05/03 A3004 RMK A01 T00500030  RH  087%=      5-min Rain = 0
KDC1 140437Z 26003KT 05/03 A3005 RMK A01 T00500031  RH  087%=      5-min Rain = 0
KDC1 140438Z 26006KT 05/03 A3005 RMK A01 T00500030  RH  087%=      5-min Rain = 0
KDC1 140439Z 23004KT 05/03 A3004 RMK A01 T00490027  RH  086%=      5-min Rain = 0
KDC1 140440Z 21003KT 05/03 A3004 RMK A01 T00470026  RH  086%=      5-min Rain = 0
KDC1 140441Z 21002KT 05/03 A3004 RMK A01 T00460026  RH  087%=      5-min Rain = 0
KDC1 140442Z 20002KT 05/03 A3004 RMK A01 T00460027  RH  088%=      5-min Rain = 0
KDC1 140443Z 20001KT 05/03 A3004 RMK A01 T00450027  RH  088%=      5-min Rain = 0
KDC1 140444Z 27001KT 05/03 A3004 RMK A01 T00460030  RH  089%=      5-min Rain = 0
KDC1 140445Z 28003KT 05/03 A3004 RMK A01 T00490031  RH  089%=      5-min Rain = 0
KDC1 140446Z 27004KT 05/03 A3004 RMK A01 T00490030  RH  088%=      5-min Rain = 0
KDC1 140447Z 27003KT 05/03 A3004 RMK A01 T00470028  RH  087%=      5-min Rain = 0
KDC1 140448Z 28003KT 05/03 A3004 RMK A01 T00470028  RH  088%=      5-min Rain = 0
KDC1 140449Z 29003KT 05/03 A3004 RMK A01 T00470029  RH  088%=      5-min Rain = 0
KDC1 140450Z 31004KT 05/03 A3004 RMK A01 T00470029  RH  088%=      5-min Rain = 0
KDC1 140451Z 31003KT 05/03 A3004 RMK A01 T00470030  RH  089%=      5-min Rain = 0
KDC1 140452Z 30003KT 05/03 A3004 RMK A01 T00470030  RH  089%=      5-min Rain = 0
KDC1 140453Z 30003KT 05/03 A3004 RMK A01 T00470031  RH  089%=      5-min Rain = 0
KDC1 140454Z 29003KT 05/03 A3004 RMK A01 T00470030  RH  089%=      5-min Rain = 0
KDC1 140455Z 29002KT 05/03 A3004 RMK A01 T00470030  RH  088%=      5-min Rain = 0
KDC1 140456Z 28002KT 05/03 A3003 RMK A01 T00470030  RH  088%=      5-min Rain = 0
KDC1 140457Z 26001KT 05/03 A3003 RMK A01 T00470029  RH  088%=      5-min Rain = 0
KDC1 140458Z 25001KT 05/03 A3003 RMK A01 T00470029  RH  088%=      5-min Rain = 0
KDC1 140459Z 24001KT 05/03 A3003 RMK A01 T00470029  RH  089%=      5-min Rain = 0
KDC1 140500Z 23000KT 05/03 A3003 RMK A01 T00470030  RH  089%=      5-min Rain = 0
KDC1 140501Z 00000KT 05/03 A3003 RMK A01 T00490031  RH  089%=      5-min Rain = 0
KDC1 140502Z 00000KT 05/03 A3003 RMK A01 T00490032  RH  088%=      5-min Rain = 0
KDC1 140503Z 00000KT 05/03 A3003 RMK A01 T00500032  RH  088%=      5-min Rain = 0
KDC1 140504Z 21000KT 05/03 A3003 RMK A01 T00510032  RH  088%=      5-min Rain = 0
KDC1 140505Z 00000KT 05/03 A3003 RMK A01 T00510033  RH  088%=      5-min Rain = 0
KDC1 140506Z 00000KT 05/03 A3003 RMK A01 T00530033  RH  087%=      5-min Rain = 0
KDC1 140507Z 00000KT 05/03 A3003 RMK A01 T00530033  RH  087%=      5-min Rain = 0
KDC1 140508Z 15000KT 05/03 A3003 RMK A01 T00540032  RH  086%=      5-min Rain = 0
KDC1 140509Z 15001KT 05/03 A3003 RMK A01 T00540032  RH  086%=      5-min Rain = 0
KDC1 140510Z 13002KT 06/03 A3003 RMK A01 T00550034  RH  086%=      5-min Rain = 0
KDC1 140511Z 13002KT 06/04 A3003 RMK A01 T00570035  RH  086%=      5-min Rain = 0
KDC1 140512Z 13002KT 06/03 A3003 RMK A01 T00570033  RH  085%=      5-min Rain = 0
KDC1 140513Z 12001KT 06/03 A3003 RMK A01 T00560032  RH  084%=      5-min Rain = 0
KDC1 140514Z 11001KT 06/03 A3003 RMK A01 T00550030  RH  084%=      5-min Rain = 0
KDC1 140515Z 11001KT 05/03 A3003 RMK A01 T00540030  RH  085%=      5-min Rain = 0
KDC1 140516Z 13002KT 05/03 A3003 RMK A01 T00530031  RH  086%=      5-min Rain = 0
KDC1 140517Z 14002KT 05/03 A3003 RMK A01 T00530031  RH  086%=      5-min Rain = 0
KDC1 140518Z 14002KT 05/03 A3003 RMK A01 T00530032  RH  086%=      5-min Rain = 0
KDC1 140519Z 13001KT 05/03 A3003 RMK A01 T00520030  RH  086%=      5-min Rain = 0
KDC1 140520Z 13001KT 05/03 A3003 RMK A01 T00520030  RH  086%=      5-min Rain = 0
KDC1 140521Z 13000KT 05/03 A3003 RMK A01 T00510029  RH  086%=      5-min Rain = 0
KDC1 140522Z 00000KT 05/03 A3003 RMK A01 T00490027  RH  085%=      5-min Rain = 0
KDC1 140523Z 00000KT 05/03 A3003 RMK A01 T00480026  RH  086%=      5-min Rain = 0
KDC1 140524Z 00000KT 05/03 A3003 RMK A01 T00470027  RH  087%=      5-min Rain = 0
KDC1 140525Z 16000KT 05/03 A3003 RMK A01 T00460027  RH  088%=      5-min Rain = 0
KDC1 140526Z 16001KT 05/03 A3003 RMK A01 T00460028  RH  088%=      5-min Rain = 0
KDC1 140527Z 17002KT 05/03 A3003 RMK A01 T00460029  RH  088%=      5-min Rain = 0
KDC1 140528Z 17002KT 05/03 A3003 RMK A01 T00460029  RH  089%=      5-min Rain = 0
KDC1 140529Z 17003KT 05/03 A3003 RMK A01 T00470029  RH  089%=      5-min Rain = 0
KDC1 140530Z 17002KT 05/03 A3003 RMK A01 T00470029  RH  088%=      5-min Rain = 0
KDC1 140531Z 17003KT 05/03 A3003 RMK A01 T00470029  RH  088%=      5-min Rain = 0
KDC1 140532Z 18004KT 05/03 A3003 RMK A01 T00470030  RH  089%=      5-min Rain = 0
KDC1 140533Z 17003KT 05/03 A3003 RMK A01 T00490032  RH  089%=      5-min Rain = 0
KDC1 140534Z 16004KT 05/03 A3003 RMK A01 T00500033  RH  089%=      5-min Rain = 0
KDC1 140535Z 17003KT 05/03 A3003 RMK A01 T00510034  RH  089%=      5-min Rain = 0
KDC1 140536Z 18003KT 05/03 A3003 RMK A01 T00520034  RH  088%=      5-min Rain = 0
KDC1 140537Z 18003KT 05/03 A3003 RMK A01 T00530033  RH  087%=      5-min Rain = 0
KDC1 140538Z 17004KT 05/03 A3003 RMK A01 T00540034  RH  087%=      5-min Rain = 0
KDC1 140539Z 18003KT 06/04 A3003 RMK A01 T00560036  RH  087%=      5-min Rain = 0
KDC1 140540Z 18003KT 06/04 A3003 RMK A01 T00580037  RH  086%=      5-min Rain = 0
KDC1 140541Z 18003KT 06/04 A3003 RMK A01 T00590036  RH  085%=      5-min Rain = 0
KDC1 140542Z 18002KT 06/04 A3003 RMK A01 T00590035  RH  084%=      5-min Rain = 0
KDC1 140543Z 19002KT 06/03 A3003 RMK A01 T00590034  RH  084%=      5-min Rain = 0
KDC1 140544Z 18003KT 06/03 A3003 RMK A01 T00570030  RH  083%=      5-min Rain = 0
KDC1 140545Z 18003KT 06/03 A3003 RMK A01 T00550030  RH  084%=      5-min Rain = 0
KDC1 140546Z 18003KT 05/03 A3003 RMK A01 T00530028  RH  084%=      5-min Rain = 0
KDC1 140547Z 18003KT 05/03 A3003 RMK A01 T00520030  RH  086%=      5-min Rain = 0
KDC1 140548Z 18003KT 05/03 A3003 RMK A01 T00530032  RH  087%=      5-min Rain = 0
KDC1 140549Z 17004KT 06/04 A3003 RMK A01 T00550035  RH  087%=      5-min Rain = 0
KDC1 140550Z 17003KT 06/03 A3003 RMK A01 T00560034  RH  086%=      5-min Rain = 0
KDC1 140551Z 17002KT 06/03 A3003 RMK A01 T00560033  RH  085%=      5-min Rain = 0
KDC1 140552Z 19002KT 06/03 A3003 RMK A01 T00550033  RH  085%=      5-min Rain = 0
KDC1 140553Z 19002KT 05/03 A3003 RMK A01 T00540031  RH  085%=      5-min Rain = 0
KDC1 140554Z 19003KT 05/03 A3003 RMK A01 T00520028  RH  085%=      5-min Rain = 0
KDC1 140555Z 18003KT 05/03 A3003 RMK A01 T00520030  RH  086%=      5-min Rain = 0
KDC1 140556Z 19003KT 05/03 A3003 RMK A01 T00530032  RH  087%=      5-min Rain = 0
KDC1 140557Z 20003KT 06/03 A3003 RMK A01 T00550034  RH  087%=      5-min Rain = 0
KDC1 140558Z 20002KT 06/03 A3003 RMK A01 T00560034  RH  086%=      5-min Rain = 0
KDC1 140559Z 20000KT 06/03 A3003 RMK A01 T00550031  RH  084%=      5-min Rain = 0

Page generated in 0.0656 seconds.